<?xml version="1.0" encoding="UTF-8" standalone="no" ?>
<gpx xmlns="http://www.topografix.com/GPX/1/1" xmlns:xsi="http://www.w3.org/2001/XMLSchema-instance" xsi:schemaLocation="http://www.topografix.com/GPX/1/1 http://www.topografix.com/GPX/1/1/gpx.xsd" version="1.1" creator="VisuGPX - https://www.visugpx.com">
  <metadata>
    <name>Retour Taf</name>
    <desc><![CDATA[Retour boulot, hard]]></desc>
  </metadata>
  <trk>
    <name><![CDATA[Retour Hard Taf]]></name>
    <desc><![CDATA[]]></desc>
    <trkseg>
      <trkpt lat="49.03187" lon="2.07621">
        <ele>89</ele>
        <time>2012-08-10T14:44:10.000Z</time>
      </trkpt>
      <trkpt lat="49.03187" lon="2.07621">
        <ele>89</ele>
        <time>2012-08-10T14:44:10.000Z</time>
      </trkpt>
      <trkpt lat="49.03187" lon="2.07621">
        <ele>90</ele>
        <time>2012-08-10T14:44:17.000Z</time>
      </trkpt>
      <trkpt lat="49.03185" lon="2.07611">
        <ele>109</ele>
        <time>2012-08-10T14:44:23.000Z</time>
      </trkpt>
      <trkpt lat="49.0318" lon="2.07613">
        <ele>107</ele>
        <time>2012-08-10T14:44:26.000Z</time>
      </trkpt>
      <trkpt lat="49.0318" lon="2.0762">
        <ele>104</ele>
        <time>2012-08-10T14:44:30.000Z</time>
      </trkpt>
      <trkpt lat="49.03182" lon="2.07626">
        <ele>103</ele>
        <time>2012-08-10T14:44:32.000Z</time>
      </trkpt>
      <trkpt lat="49.03186" lon="2.07639">
        <ele>99</ele>
        <time>2012-08-10T14:44:34.000Z</time>
      </trkpt>
      <trkpt lat="49.03188" lon="2.0765">
        <ele>96</ele>
        <time>2012-08-10T14:44:36.000Z</time>
      </trkpt>
      <trkpt lat="49.03185" lon="2.07655">
        <ele>97</ele>
        <time>2012-08-10T14:44:38.000Z</time>
      </trkpt>
      <trkpt lat="49.03179" lon="2.07659">
        <ele>97</ele>
        <time>2012-08-10T14:44:40.000Z</time>
      </trkpt>
      <trkpt lat="49.03178" lon="2.07669">
        <ele>97</ele>
        <time>2012-08-10T14:44:43.000Z</time>
      </trkpt>
      <trkpt lat="49.03183" lon="2.07668">
        <ele>94</ele>
        <time>2012-08-10T14:44:49.000Z</time>
      </trkpt>
      <trkpt lat="49.0319" lon="2.07666">
        <ele>95</ele>
        <time>2012-08-10T14:44:52.000Z</time>
      </trkpt>
      <trkpt lat="49.03188" lon="2.07673">
        <ele>96</ele>
        <time>2012-08-10T14:44:56.000Z</time>
      </trkpt>
      <trkpt lat="49.03194" lon="2.07669">
        <ele>94</ele>
        <time>2012-08-10T14:45:01.000Z</time>
      </trkpt>
      <trkpt lat="49.03199" lon="2.07667">
        <ele>94</ele>
        <time>2012-08-10T14:45:03.000Z</time>
      </trkpt>
      <trkpt lat="49.03204" lon="2.07664">
        <ele>93</ele>
        <time>2012-08-10T14:45:05.000Z</time>
      </trkpt>
      <trkpt lat="49.0321" lon="2.0766">
        <ele>94</ele>
        <time>2012-08-10T14:45:07.000Z</time>
      </trkpt>
      <trkpt lat="49.03216" lon="2.07658">
        <ele>93</ele>
        <time>2012-08-10T14:45:09.000Z</time>
      </trkpt>
      <trkpt lat="49.0322" lon="2.07656">
        <ele>90</ele>
        <time>2012-08-10T14:45:11.000Z</time>
      </trkpt>
      <trkpt lat="49.03226" lon="2.07651">
        <ele>90</ele>
        <time>2012-08-10T14:45:13.000Z</time>
      </trkpt>
      <trkpt lat="49.03232" lon="2.07646">
        <ele>89</ele>
        <time>2012-08-10T14:45:15.000Z</time>
      </trkpt>
      <trkpt lat="49.0324" lon="2.07643">
        <ele>89</ele>
        <time>2012-08-10T14:45:17.000Z</time>
      </trkpt>
      <trkpt lat="49.03246" lon="2.07639">
        <ele>88</ele>
        <time>2012-08-10T14:45:19.000Z</time>
      </trkpt>
      <trkpt lat="49.03252" lon="2.07636">
        <ele>88</ele>
        <time>2012-08-10T14:45:21.000Z</time>
      </trkpt>
      <trkpt lat="49.03258" lon="2.07631">
        <ele>87</ele>
        <time>2012-08-10T14:45:23.000Z</time>
      </trkpt>
      <trkpt lat="49.03263" lon="2.07621">
        <ele>86</ele>
        <time>2012-08-10T14:45:25.000Z</time>
      </trkpt>
      <trkpt lat="49.03267" lon="2.0761">
        <ele>86</ele>
        <time>2012-08-10T14:45:27.000Z</time>
      </trkpt>
      <trkpt lat="49.03272" lon="2.076">
        <ele>86</ele>
        <time>2012-08-10T14:45:29.000Z</time>
      </trkpt>
      <trkpt lat="49.03276" lon="2.0759">
        <ele>86</ele>
        <time>2012-08-10T14:45:31.000Z</time>
      </trkpt>
      <trkpt lat="49.0328" lon="2.07586">
        <ele>86</ele>
        <time>2012-08-10T14:45:32.000Z</time>
      </trkpt>
      <trkpt lat="49.03284" lon="2.07581">
        <ele>86</ele>
        <time>2012-08-10T14:45:33.000Z</time>
      </trkpt>
      <trkpt lat="49.03288" lon="2.07577">
        <ele>86</ele>
        <time>2012-08-10T14:45:34.000Z</time>
      </trkpt>
      <trkpt lat="49.03296" lon="2.07569">
        <ele>87</ele>
        <time>2012-08-10T14:45:36.000Z</time>
      </trkpt>
      <trkpt lat="49.03302" lon="2.0756">
        <ele>87</ele>
        <time>2012-08-10T14:45:38.000Z</time>
      </trkpt>
      <trkpt lat="49.03308" lon="2.07552">
        <ele>86</ele>
        <time>2012-08-10T14:45:40.000Z</time>
      </trkpt>
      <trkpt lat="49.03314" lon="2.07543">
        <ele>85</ele>
        <time>2012-08-10T14:45:42.000Z</time>
      </trkpt>
      <trkpt lat="49.03319" lon="2.07532">
        <ele>84</ele>
        <time>2012-08-10T14:45:44.000Z</time>
      </trkpt>
      <trkpt lat="49.03325" lon="2.07523">
        <ele>84</ele>
        <time>2012-08-10T14:45:46.000Z</time>
      </trkpt>
      <trkpt lat="49.03331" lon="2.07514">
        <ele>84</ele>
        <time>2012-08-10T14:45:48.000Z</time>
      </trkpt>
      <trkpt lat="49.03334" lon="2.0751">
        <ele>84</ele>
        <time>2012-08-10T14:45:49.000Z</time>
      </trkpt>
      <trkpt lat="49.03338" lon="2.075">
        <ele>84</ele>
        <time>2012-08-10T14:45:51.000Z</time>
      </trkpt>
      <trkpt lat="49.03341" lon="2.0749">
        <ele>84</ele>
        <time>2012-08-10T14:45:53.000Z</time>
      </trkpt>
      <trkpt lat="49.03345" lon="2.0748">
        <ele>84</ele>
        <time>2012-08-10T14:45:55.000Z</time>
      </trkpt>
      <trkpt lat="49.0335" lon="2.0747">
        <ele>85</ele>
        <time>2012-08-10T14:45:57.000Z</time>
      </trkpt>
      <trkpt lat="49.03356" lon="2.07461">
        <ele>85</ele>
        <time>2012-08-10T14:45:59.000Z</time>
      </trkpt>
      <trkpt lat="49.03362" lon="2.07452">
        <ele>86</ele>
        <time>2012-08-10T14:46:01.000Z</time>
      </trkpt>
      <trkpt lat="49.03365" lon="2.07447">
        <ele>86</ele>
        <time>2012-08-10T14:46:02.000Z</time>
      </trkpt>
      <trkpt lat="49.03369" lon="2.07442">
        <ele>86</ele>
        <time>2012-08-10T14:46:03.000Z</time>
      </trkpt>
      <trkpt lat="49.03372" lon="2.07437">
        <ele>86</ele>
        <time>2012-08-10T14:46:04.000Z</time>
      </trkpt>
      <trkpt lat="49.03375" lon="2.07432">
        <ele>86</ele>
        <time>2012-08-10T14:46:05.000Z</time>
      </trkpt>
      <trkpt lat="49.0338" lon="2.07427">
        <ele>84</ele>
        <time>2012-08-10T14:46:06.000Z</time>
      </trkpt>
      <trkpt lat="49.03383" lon="2.07423">
        <ele>84</ele>
        <time>2012-08-10T14:46:07.000Z</time>
      </trkpt>
      <trkpt lat="49.03387" lon="2.07418">
        <ele>85</ele>
        <time>2012-08-10T14:46:08.000Z</time>
      </trkpt>
      <trkpt lat="49.03391" lon="2.07414">
        <ele>84</ele>
        <time>2012-08-10T14:46:09.000Z</time>
      </trkpt>
      <trkpt lat="49.03397" lon="2.07405">
        <ele>84</ele>
        <time>2012-08-10T14:46:11.000Z</time>
      </trkpt>
      <trkpt lat="49.03402" lon="2.07395">
        <ele>83</ele>
        <time>2012-08-10T14:46:13.000Z</time>
      </trkpt>
      <trkpt lat="49.03408" lon="2.07387">
        <ele>82</ele>
        <time>2012-08-10T14:46:15.000Z</time>
      </trkpt>
      <trkpt lat="49.03415" lon="2.07379">
        <ele>82</ele>
        <time>2012-08-10T14:46:17.000Z</time>
      </trkpt>
      <trkpt lat="49.03421" lon="2.07371">
        <ele>82</ele>
        <time>2012-08-10T14:46:19.000Z</time>
      </trkpt>
      <trkpt lat="49.03427" lon="2.07363">
        <ele>82</ele>
        <time>2012-08-10T14:46:21.000Z</time>
      </trkpt>
      <trkpt lat="49.03433" lon="2.07355">
        <ele>82</ele>
        <time>2012-08-10T14:46:23.000Z</time>
      </trkpt>
      <trkpt lat="49.03436" lon="2.07349">
        <ele>82</ele>
        <time>2012-08-10T14:46:24.000Z</time>
      </trkpt>
      <trkpt lat="49.03442" lon="2.0734">
        <ele>82</ele>
        <time>2012-08-10T14:46:26.000Z</time>
      </trkpt>
      <trkpt lat="49.03447" lon="2.07332">
        <ele>82</ele>
        <time>2012-08-10T14:46:28.000Z</time>
      </trkpt>
      <trkpt lat="49.03451" lon="2.07322">
        <ele>82</ele>
        <time>2012-08-10T14:46:30.000Z</time>
      </trkpt>
      <trkpt lat="49.03453" lon="2.07312">
        <ele>82</ele>
        <time>2012-08-10T14:46:32.000Z</time>
      </trkpt>
      <trkpt lat="49.03451" lon="2.07305">
        <ele>83</ele>
        <time>2012-08-10T14:46:33.000Z</time>
      </trkpt>
      <trkpt lat="49.03446" lon="2.07293">
        <ele>80</ele>
        <time>2012-08-10T14:46:35.000Z</time>
      </trkpt>
      <trkpt lat="49.03442" lon="2.07288">
        <ele>80</ele>
        <time>2012-08-10T14:46:36.000Z</time>
      </trkpt>
      <trkpt lat="49.03438" lon="2.07283">
        <ele>80</ele>
        <time>2012-08-10T14:46:37.000Z</time>
      </trkpt>
      <trkpt lat="49.03435" lon="2.07277">
        <ele>80</ele>
        <time>2012-08-10T14:46:38.000Z</time>
      </trkpt>
      <trkpt lat="49.0343" lon="2.07272">
        <ele>80</ele>
        <time>2012-08-10T14:46:39.000Z</time>
      </trkpt>
      <trkpt lat="49.03425" lon="2.07268">
        <ele>80</ele>
        <time>2012-08-10T14:46:40.000Z</time>
      </trkpt>
      <trkpt lat="49.0342" lon="2.07263">
        <ele>80</ele>
        <time>2012-08-10T14:46:41.000Z</time>
      </trkpt>
      <trkpt lat="49.03415" lon="2.07258">
        <ele>80</ele>
        <time>2012-08-10T14:46:42.000Z</time>
      </trkpt>
      <trkpt lat="49.0341" lon="2.07253">
        <ele>79</ele>
        <time>2012-08-10T14:46:43.000Z</time>
      </trkpt>
      <trkpt lat="49.03404" lon="2.07247">
        <ele>79</ele>
        <time>2012-08-10T14:46:44.000Z</time>
      </trkpt>
      <trkpt lat="49.034" lon="2.0724">
        <ele>79</ele>
        <time>2012-08-10T14:46:45.000Z</time>
      </trkpt>
      <trkpt lat="49.03397" lon="2.07233">
        <ele>79</ele>
        <time>2012-08-10T14:46:46.000Z</time>
      </trkpt>
      <trkpt lat="49.03393" lon="2.07227">
        <ele>78</ele>
        <time>2012-08-10T14:46:47.000Z</time>
      </trkpt>
      <trkpt lat="49.03389" lon="2.0722">
        <ele>78</ele>
        <time>2012-08-10T14:46:48.000Z</time>
      </trkpt>
      <trkpt lat="49.03385" lon="2.07214">
        <ele>78</ele>
        <time>2012-08-10T14:46:49.000Z</time>
      </trkpt>
      <trkpt lat="49.03381" lon="2.0721">
        <ele>78</ele>
        <time>2012-08-10T14:46:50.000Z</time>
      </trkpt>
      <trkpt lat="49.03377" lon="2.07206">
        <ele>78</ele>
        <time>2012-08-10T14:46:51.000Z</time>
      </trkpt>
      <trkpt lat="49.03374" lon="2.07201">
        <ele>78</ele>
        <time>2012-08-10T14:46:52.000Z</time>
      </trkpt>
      <trkpt lat="49.03368" lon="2.07194">
        <ele>78</ele>
        <time>2012-08-10T14:46:54.000Z</time>
      </trkpt>
      <trkpt lat="49.03364" lon="2.07188">
        <ele>78</ele>
        <time>2012-08-10T14:46:56.000Z</time>
      </trkpt>
      <trkpt lat="49.03361" lon="2.0718">
        <ele>79</ele>
        <time>2012-08-10T14:46:58.000Z</time>
      </trkpt>
      <trkpt lat="49.03362" lon="2.07168">
        <ele>79</ele>
        <time>2012-08-10T14:47:00.000Z</time>
      </trkpt>
      <trkpt lat="49.03364" lon="2.07156">
        <ele>79</ele>
        <time>2012-08-10T14:47:02.000Z</time>
      </trkpt>
      <trkpt lat="49.03366" lon="2.0715">
        <ele>79</ele>
        <time>2012-08-10T14:47:03.000Z</time>
      </trkpt>
      <trkpt lat="49.03367" lon="2.07137">
        <ele>79</ele>
        <time>2012-08-10T14:47:05.000Z</time>
      </trkpt>
      <trkpt lat="49.03367" lon="2.07124">
        <ele>79</ele>
        <time>2012-08-10T14:47:07.000Z</time>
      </trkpt>
      <trkpt lat="49.03367" lon="2.07112">
        <ele>79</ele>
        <time>2012-08-10T14:47:09.000Z</time>
      </trkpt>
      <trkpt lat="49.03367" lon="2.07105">
        <ele>80</ele>
        <time>2012-08-10T14:47:10.000Z</time>
      </trkpt>
      <trkpt lat="49.03367" lon="2.07092">
        <ele>78</ele>
        <time>2012-08-10T14:47:12.000Z</time>
      </trkpt>
      <trkpt lat="49.03367" lon="2.07079">
        <ele>78</ele>
        <time>2012-08-10T14:47:14.000Z</time>
      </trkpt>
      <trkpt lat="49.03367" lon="2.07072">
        <ele>78</ele>
        <time>2012-08-10T14:47:15.000Z</time>
      </trkpt>
      <trkpt lat="49.03368" lon="2.07064">
        <ele>78</ele>
        <time>2012-08-10T14:47:16.000Z</time>
      </trkpt>
      <trkpt lat="49.03368" lon="2.07057">
        <ele>78</ele>
        <time>2012-08-10T14:47:17.000Z</time>
      </trkpt>
      <trkpt lat="49.03368" lon="2.07044">
        <ele>78</ele>
        <time>2012-08-10T14:47:19.000Z</time>
      </trkpt>
      <trkpt lat="49.03368" lon="2.07037">
        <ele>78</ele>
        <time>2012-08-10T14:47:20.000Z</time>
      </trkpt>
      <trkpt lat="49.03368" lon="2.07024">
        <ele>79</ele>
        <time>2012-08-10T14:47:22.000Z</time>
      </trkpt>
      <trkpt lat="49.03368" lon="2.07017">
        <ele>79</ele>
        <time>2012-08-10T14:47:23.000Z</time>
      </trkpt>
      <trkpt lat="49.03364" lon="2.07004">
        <ele>79</ele>
        <time>2012-08-10T14:47:25.000Z</time>
      </trkpt>
      <trkpt lat="49.03361" lon="2.06993">
        <ele>79</ele>
        <time>2012-08-10T14:47:27.000Z</time>
      </trkpt>
      <trkpt lat="49.03359" lon="2.06987">
        <ele>79</ele>
        <time>2012-08-10T14:47:28.000Z</time>
      </trkpt>
      <trkpt lat="49.03359" lon="2.0698">
        <ele>79</ele>
        <time>2012-08-10T14:47:29.000Z</time>
      </trkpt>
      <trkpt lat="49.03357" lon="2.06973">
        <ele>78</ele>
        <time>2012-08-10T14:47:30.000Z</time>
      </trkpt>
      <trkpt lat="49.03356" lon="2.06966">
        <ele>79</ele>
        <time>2012-08-10T14:47:31.000Z</time>
      </trkpt>
      <trkpt lat="49.03357" lon="2.06959">
        <ele>78</ele>
        <time>2012-08-10T14:47:32.000Z</time>
      </trkpt>
      <trkpt lat="49.03357" lon="2.06952">
        <ele>78</ele>
        <time>2012-08-10T14:47:33.000Z</time>
      </trkpt>
      <trkpt lat="49.03357" lon="2.06942">
        <ele>78</ele>
        <time>2012-08-10T14:47:35.000Z</time>
      </trkpt>
      <trkpt lat="49.03358" lon="2.06932">
        <ele>77</ele>
        <time>2012-08-10T14:47:37.000Z</time>
      </trkpt>
      <trkpt lat="49.03361" lon="2.06924">
        <ele>77</ele>
        <time>2012-08-10T14:47:40.000Z</time>
      </trkpt>
      <trkpt lat="49.03362" lon="2.06915">
        <ele>77</ele>
        <time>2012-08-10T14:47:43.000Z</time>
      </trkpt>
      <trkpt lat="49.03362" lon="2.06906">
        <ele>78</ele>
        <time>2012-08-10T14:47:45.000Z</time>
      </trkpt>
      <trkpt lat="49.03364" lon="2.06895">
        <ele>78</ele>
        <time>2012-08-10T14:47:47.000Z</time>
      </trkpt>
      <trkpt lat="49.03364" lon="2.06882">
        <ele>79</ele>
        <time>2012-08-10T14:47:49.000Z</time>
      </trkpt>
      <trkpt lat="49.03364" lon="2.06875">
        <ele>79</ele>
        <time>2012-08-10T14:47:50.000Z</time>
      </trkpt>
      <trkpt lat="49.03363" lon="2.06862">
        <ele>79</ele>
        <time>2012-08-10T14:47:52.000Z</time>
      </trkpt>
      <trkpt lat="49.03363" lon="2.06849">
        <ele>79</ele>
        <time>2012-08-10T14:47:54.000Z</time>
      </trkpt>
      <trkpt lat="49.03364" lon="2.06837">
        <ele>80</ele>
        <time>2012-08-10T14:47:56.000Z</time>
      </trkpt>
      <trkpt lat="49.03364" lon="2.06826">
        <ele>79</ele>
        <time>2012-08-10T14:47:58.000Z</time>
      </trkpt>
      <trkpt lat="49.03363" lon="2.06811">
        <ele>78</ele>
        <time>2012-08-10T14:48:00.000Z</time>
      </trkpt>
      <trkpt lat="49.03364" lon="2.06798">
        <ele>78</ele>
        <time>2012-08-10T14:48:02.000Z</time>
      </trkpt>
      <trkpt lat="49.03366" lon="2.06786">
        <ele>78</ele>
        <time>2012-08-10T14:48:04.000Z</time>
      </trkpt>
      <trkpt lat="49.03366" lon="2.06774">
        <ele>78</ele>
        <time>2012-08-10T14:48:06.000Z</time>
      </trkpt>
      <trkpt lat="49.03366" lon="2.06764">
        <ele>79</ele>
        <time>2012-08-10T14:48:08.000Z</time>
      </trkpt>
      <trkpt lat="49.03366" lon="2.06752">
        <ele>79</ele>
        <time>2012-08-10T14:48:10.000Z</time>
      </trkpt>
      <trkpt lat="49.03366" lon="2.06739">
        <ele>78</ele>
        <time>2012-08-10T14:48:12.000Z</time>
      </trkpt>
      <trkpt lat="49.03364" lon="2.06727">
        <ele>77</ele>
        <time>2012-08-10T14:48:14.000Z</time>
      </trkpt>
      <trkpt lat="49.03362" lon="2.06716">
        <ele>77</ele>
        <time>2012-08-10T14:48:16.000Z</time>
      </trkpt>
      <trkpt lat="49.03357" lon="2.06704">
        <ele>77</ele>
        <time>2012-08-10T14:48:18.000Z</time>
      </trkpt>
      <trkpt lat="49.03353" lon="2.06692">
        <ele>76</ele>
        <time>2012-08-10T14:48:20.000Z</time>
      </trkpt>
      <trkpt lat="49.03352" lon="2.0668">
        <ele>77</ele>
        <time>2012-08-10T14:48:22.000Z</time>
      </trkpt>
      <trkpt lat="49.03348" lon="2.06668">
        <ele>77</ele>
        <time>2012-08-10T14:48:24.000Z</time>
      </trkpt>
      <trkpt lat="49.03345" lon="2.06662">
        <ele>77</ele>
        <time>2012-08-10T14:48:25.000Z</time>
      </trkpt>
      <trkpt lat="49.03342" lon="2.06656">
        <ele>77</ele>
        <time>2012-08-10T14:48:26.000Z</time>
      </trkpt>
      <trkpt lat="49.03338" lon="2.06644">
        <ele>76</ele>
        <time>2012-08-10T14:48:28.000Z</time>
      </trkpt>
      <trkpt lat="49.03335" lon="2.06637">
        <ele>76</ele>
        <time>2012-08-10T14:48:29.000Z</time>
      </trkpt>
      <trkpt lat="49.0333" lon="2.06627">
        <ele>75</ele>
        <time>2012-08-10T14:48:31.000Z</time>
      </trkpt>
      <trkpt lat="49.03326" lon="2.06616">
        <ele>75</ele>
        <time>2012-08-10T14:48:33.000Z</time>
      </trkpt>
      <trkpt lat="49.03328" lon="2.06603">
        <ele>74</ele>
        <time>2012-08-10T14:48:35.000Z</time>
      </trkpt>
      <trkpt lat="49.03323" lon="2.06591">
        <ele>74</ele>
        <time>2012-08-10T14:48:37.000Z</time>
      </trkpt>
      <trkpt lat="49.03319" lon="2.06585">
        <ele>74</ele>
        <time>2012-08-10T14:48:38.000Z</time>
      </trkpt>
      <trkpt lat="49.03316" lon="2.06579">
        <ele>74</ele>
        <time>2012-08-10T14:48:39.000Z</time>
      </trkpt>
      <trkpt lat="49.03312" lon="2.06572">
        <ele>73</ele>
        <time>2012-08-10T14:48:40.000Z</time>
      </trkpt>
      <trkpt lat="49.03309" lon="2.06566">
        <ele>73</ele>
        <time>2012-08-10T14:48:41.000Z</time>
      </trkpt>
      <trkpt lat="49.03306" lon="2.06559">
        <ele>72</ele>
        <time>2012-08-10T14:48:42.000Z</time>
      </trkpt>
      <trkpt lat="49.03302" lon="2.06552">
        <ele>72</ele>
        <time>2012-08-10T14:48:43.000Z</time>
      </trkpt>
      <trkpt lat="49.03298" lon="2.06544">
        <ele>72</ele>
        <time>2012-08-10T14:48:44.000Z</time>
      </trkpt>
      <trkpt lat="49.03295" lon="2.06536">
        <ele>72</ele>
        <time>2012-08-10T14:48:45.000Z</time>
      </trkpt>
      <trkpt lat="49.03291" lon="2.06528">
        <ele>72</ele>
        <time>2012-08-10T14:48:46.000Z</time>
      </trkpt>
      <trkpt lat="49.03287" lon="2.0652">
        <ele>71</ele>
        <time>2012-08-10T14:48:47.000Z</time>
      </trkpt>
      <trkpt lat="49.03284" lon="2.06512">
        <ele>71</ele>
        <time>2012-08-10T14:48:48.000Z</time>
      </trkpt>
      <trkpt lat="49.0328" lon="2.06504">
        <ele>71</ele>
        <time>2012-08-10T14:48:49.000Z</time>
      </trkpt>
      <trkpt lat="49.03276" lon="2.06496">
        <ele>71</ele>
        <time>2012-08-10T14:48:50.000Z</time>
      </trkpt>
      <trkpt lat="49.03272" lon="2.06488">
        <ele>70</ele>
        <time>2012-08-10T14:48:51.000Z</time>
      </trkpt>
      <trkpt lat="49.03268" lon="2.0648">
        <ele>70</ele>
        <time>2012-08-10T14:48:52.000Z</time>
      </trkpt>
      <trkpt lat="49.03266" lon="2.0647">
        <ele>70</ele>
        <time>2012-08-10T14:48:53.000Z</time>
      </trkpt>
      <trkpt lat="49.03262" lon="2.06462">
        <ele>70</ele>
        <time>2012-08-10T14:48:54.000Z</time>
      </trkpt>
      <trkpt lat="49.03259" lon="2.06454">
        <ele>70</ele>
        <time>2012-08-10T14:48:55.000Z</time>
      </trkpt>
      <trkpt lat="49.03256" lon="2.06447">
        <ele>70</ele>
        <time>2012-08-10T14:48:56.000Z</time>
      </trkpt>
      <trkpt lat="49.03253" lon="2.06441">
        <ele>70</ele>
        <time>2012-08-10T14:48:57.000Z</time>
      </trkpt>
      <trkpt lat="49.03248" lon="2.06431">
        <ele>70</ele>
        <time>2012-08-10T14:48:59.000Z</time>
      </trkpt>
      <trkpt lat="49.03245" lon="2.06424">
        <ele>69</ele>
        <time>2012-08-10T14:49:02.000Z</time>
      </trkpt>
      <trkpt lat="49.03244" lon="2.06415">
        <ele>69</ele>
        <time>2012-08-10T14:49:17.000Z</time>
      </trkpt>
      <trkpt lat="49.0324" lon="2.06407">
        <ele>68</ele>
        <time>2012-08-10T14:49:19.000Z</time>
      </trkpt>
      <trkpt lat="49.03236" lon="2.06395">
        <ele>69</ele>
        <time>2012-08-10T14:49:20.000Z</time>
      </trkpt>
      <trkpt lat="49.03234" lon="2.06389">
        <ele>69</ele>
        <time>2012-08-10T14:49:21.000Z</time>
      </trkpt>
      <trkpt lat="49.03231" lon="2.06382">
        <ele>68</ele>
        <time>2012-08-10T14:49:22.000Z</time>
      </trkpt>
      <trkpt lat="49.03228" lon="2.06374">
        <ele>68</ele>
        <time>2012-08-10T14:49:23.000Z</time>
      </trkpt>
      <trkpt lat="49.03224" lon="2.06368">
        <ele>68</ele>
        <time>2012-08-10T14:49:24.000Z</time>
      </trkpt>
      <trkpt lat="49.03222" lon="2.0636">
        <ele>68</ele>
        <time>2012-08-10T14:49:25.000Z</time>
      </trkpt>
      <trkpt lat="49.03219" lon="2.06355">
        <ele>69</ele>
        <time>2012-08-10T14:49:26.000Z</time>
      </trkpt>
      <trkpt lat="49.03215" lon="2.06348">
        <ele>69</ele>
        <time>2012-08-10T14:49:27.000Z</time>
      </trkpt>
      <trkpt lat="49.03213" lon="2.06341">
        <ele>70</ele>
        <time>2012-08-10T14:49:28.000Z</time>
      </trkpt>
      <trkpt lat="49.0321" lon="2.06334">
        <ele>70</ele>
        <time>2012-08-10T14:49:29.000Z</time>
      </trkpt>
      <trkpt lat="49.03206" lon="2.06328">
        <ele>70</ele>
        <time>2012-08-10T14:49:30.000Z</time>
      </trkpt>
      <trkpt lat="49.03203" lon="2.06322">
        <ele>71</ele>
        <time>2012-08-10T14:49:31.000Z</time>
      </trkpt>
      <trkpt lat="49.032" lon="2.06314">
        <ele>71</ele>
        <time>2012-08-10T14:49:32.000Z</time>
      </trkpt>
      <trkpt lat="49.03196" lon="2.06304">
        <ele>71</ele>
        <time>2012-08-10T14:49:34.000Z</time>
      </trkpt>
      <trkpt lat="49.03193" lon="2.06298">
        <ele>69</ele>
        <time>2012-08-10T14:49:37.000Z</time>
      </trkpt>
      <trkpt lat="49.0319" lon="2.06292">
        <ele>70</ele>
        <time>2012-08-10T14:49:43.000Z</time>
      </trkpt>
      <trkpt lat="49.03186" lon="2.06286">
        <ele>70</ele>
        <time>2012-08-10T14:49:44.000Z</time>
      </trkpt>
      <trkpt lat="49.03184" lon="2.06279">
        <ele>70</ele>
        <time>2012-08-10T14:49:45.000Z</time>
      </trkpt>
      <trkpt lat="49.03179" lon="2.06267">
        <ele>70</ele>
        <time>2012-08-10T14:49:47.000Z</time>
      </trkpt>
      <trkpt lat="49.03174" lon="2.06255">
        <ele>70</ele>
        <time>2012-08-10T14:49:49.000Z</time>
      </trkpt>
      <trkpt lat="49.03172" lon="2.06249">
        <ele>70</ele>
        <time>2012-08-10T14:49:50.000Z</time>
      </trkpt>
      <trkpt lat="49.03167" lon="2.06237">
        <ele>71</ele>
        <time>2012-08-10T14:49:52.000Z</time>
      </trkpt>
      <trkpt lat="49.03164" lon="2.0623">
        <ele>71</ele>
        <time>2012-08-10T14:49:53.000Z</time>
      </trkpt>
      <trkpt lat="49.03162" lon="2.06224">
        <ele>71</ele>
        <time>2012-08-10T14:49:54.000Z</time>
      </trkpt>
      <trkpt lat="49.03159" lon="2.06218">
        <ele>71</ele>
        <time>2012-08-10T14:49:55.000Z</time>
      </trkpt>
      <trkpt lat="49.03156" lon="2.06212">
        <ele>71</ele>
        <time>2012-08-10T14:49:56.000Z</time>
      </trkpt>
      <trkpt lat="49.03153" lon="2.06206">
        <ele>71</ele>
        <time>2012-08-10T14:49:57.000Z</time>
      </trkpt>
      <trkpt lat="49.03148" lon="2.06193">
        <ele>71</ele>
        <time>2012-08-10T14:49:59.000Z</time>
      </trkpt>
      <trkpt lat="49.03145" lon="2.06187">
        <ele>70</ele>
        <time>2012-08-10T14:50:00.000Z</time>
      </trkpt>
      <trkpt lat="49.03142" lon="2.06181">
        <ele>70</ele>
        <time>2012-08-10T14:50:01.000Z</time>
      </trkpt>
      <trkpt lat="49.03141" lon="2.06173">
        <ele>69</ele>
        <time>2012-08-10T14:50:02.000Z</time>
      </trkpt>
      <trkpt lat="49.03136" lon="2.06162">
        <ele>69</ele>
        <time>2012-08-10T14:50:04.000Z</time>
      </trkpt>
      <trkpt lat="49.03138" lon="2.06149">
        <ele>69</ele>
        <time>2012-08-10T14:50:06.000Z</time>
      </trkpt>
      <trkpt lat="49.03142" lon="2.06137">
        <ele>69</ele>
        <time>2012-08-10T14:50:08.000Z</time>
      </trkpt>
      <trkpt lat="49.03149" lon="2.06118">
        <ele>69</ele>
        <time>2012-08-10T14:50:11.000Z</time>
      </trkpt>
      <trkpt lat="49.03152" lon="2.0611">
        <ele>69</ele>
        <time>2012-08-10T14:50:12.000Z</time>
      </trkpt>
      <trkpt lat="49.03155" lon="2.06105">
        <ele>68</ele>
        <time>2012-08-10T14:50:13.000Z</time>
      </trkpt>
      <trkpt lat="49.03157" lon="2.06098">
        <ele>68</ele>
        <time>2012-08-10T14:50:14.000Z</time>
      </trkpt>
      <trkpt lat="49.03169" lon="2.06094">
        <ele>69</ele>
        <time>2012-08-10T14:50:16.000Z</time>
      </trkpt>
      <trkpt lat="49.03171" lon="2.06087">
        <ele>68</ele>
        <time>2012-08-10T14:50:17.000Z</time>
      </trkpt>
      <trkpt lat="49.03176" lon="2.0608">
        <ele>69</ele>
        <time>2012-08-10T14:50:19.000Z</time>
      </trkpt>
      <trkpt lat="49.03181" lon="2.06072">
        <ele>69</ele>
        <time>2012-08-10T14:50:21.000Z</time>
      </trkpt>
      <trkpt lat="49.03184" lon="2.06067">
        <ele>69</ele>
        <time>2012-08-10T14:50:22.000Z</time>
      </trkpt>
      <trkpt lat="49.03187" lon="2.06059">
        <ele>68</ele>
        <time>2012-08-10T14:50:24.000Z</time>
      </trkpt>
      <trkpt lat="49.0319" lon="2.06053">
        <ele>68</ele>
        <time>2012-08-10T14:50:26.000Z</time>
      </trkpt>
      <trkpt lat="49.03194" lon="2.06043">
        <ele>69</ele>
        <time>2012-08-10T14:50:28.000Z</time>
      </trkpt>
      <trkpt lat="49.03199" lon="2.06035">
        <ele>70</ele>
        <time>2012-08-10T14:50:30.000Z</time>
      </trkpt>
      <trkpt lat="49.03202" lon="2.06028">
        <ele>70</ele>
        <time>2012-08-10T14:50:32.000Z</time>
      </trkpt>
      <trkpt lat="49.03201" lon="2.06021">
        <ele>68</ele>
        <time>2012-08-10T14:50:35.000Z</time>
      </trkpt>
      <trkpt lat="49.03197" lon="2.06016">
        <ele>69</ele>
        <time>2012-08-10T14:50:36.000Z</time>
      </trkpt>
      <trkpt lat="49.03194" lon="2.06009">
        <ele>69</ele>
        <time>2012-08-10T14:50:37.000Z</time>
      </trkpt>
      <trkpt lat="49.03192" lon="2.06003">
        <ele>69</ele>
        <time>2012-08-10T14:50:38.000Z</time>
      </trkpt>
      <trkpt lat="49.0319" lon="2.05991">
        <ele>70</ele>
        <time>2012-08-10T14:50:40.000Z</time>
      </trkpt>
      <trkpt lat="49.03188" lon="2.0598">
        <ele>71</ele>
        <time>2012-08-10T14:50:42.000Z</time>
      </trkpt>
      <trkpt lat="49.03184" lon="2.05969">
        <ele>73</ele>
        <time>2012-08-10T14:50:44.000Z</time>
      </trkpt>
      <trkpt lat="49.03181" lon="2.05958">
        <ele>74</ele>
        <time>2012-08-10T14:50:46.000Z</time>
      </trkpt>
      <trkpt lat="49.03178" lon="2.05948">
        <ele>74</ele>
        <time>2012-08-10T14:50:48.000Z</time>
      </trkpt>
      <trkpt lat="49.03176" lon="2.05937">
        <ele>74</ele>
        <time>2012-08-10T14:50:50.000Z</time>
      </trkpt>
      <trkpt lat="49.03173" lon="2.05926">
        <ele>74</ele>
        <time>2012-08-10T14:50:52.000Z</time>
      </trkpt>
      <trkpt lat="49.0317" lon="2.05914">
        <ele>74</ele>
        <time>2012-08-10T14:50:54.000Z</time>
      </trkpt>
      <trkpt lat="49.03166" lon="2.05902">
        <ele>73</ele>
        <time>2012-08-10T14:50:56.000Z</time>
      </trkpt>
      <trkpt lat="49.03164" lon="2.05891">
        <ele>73</ele>
        <time>2012-08-10T14:50:58.000Z</time>
      </trkpt>
      <trkpt lat="49.03161" lon="2.05878">
        <ele>72</ele>
        <time>2012-08-10T14:51:00.000Z</time>
      </trkpt>
      <trkpt lat="49.03157" lon="2.05864">
        <ele>71</ele>
        <time>2012-08-10T14:51:02.000Z</time>
      </trkpt>
      <trkpt lat="49.03156" lon="2.05857">
        <ele>71</ele>
        <time>2012-08-10T14:51:03.000Z</time>
      </trkpt>
      <trkpt lat="49.03155" lon="2.0585">
        <ele>71</ele>
        <time>2012-08-10T14:51:04.000Z</time>
      </trkpt>
      <trkpt lat="49.03153" lon="2.05843">
        <ele>70</ele>
        <time>2012-08-10T14:51:05.000Z</time>
      </trkpt>
      <trkpt lat="49.03151" lon="2.05835">
        <ele>70</ele>
        <time>2012-08-10T14:51:06.000Z</time>
      </trkpt>
      <trkpt lat="49.03149" lon="2.05828">
        <ele>70</ele>
        <time>2012-08-10T14:51:07.000Z</time>
      </trkpt>
      <trkpt lat="49.03148" lon="2.05816">
        <ele>70</ele>
        <time>2012-08-10T14:51:09.000Z</time>
      </trkpt>
      <trkpt lat="49.03147" lon="2.05806">
        <ele>69</ele>
        <time>2012-08-10T14:51:11.000Z</time>
      </trkpt>
      <trkpt lat="49.03153" lon="2.05808">
        <ele>70</ele>
        <time>2012-08-10T14:51:28.000Z</time>
      </trkpt>
      <trkpt lat="49.03157" lon="2.0581">
        <ele>69</ele>
        <time>2012-08-10T14:51:30.000Z</time>
      </trkpt>
      <trkpt lat="49.03166" lon="2.05811">
        <ele>68</ele>
        <time>2012-08-10T14:51:32.000Z</time>
      </trkpt>
      <trkpt lat="49.0317" lon="2.05813">
        <ele>68</ele>
        <time>2012-08-10T14:51:33.000Z</time>
      </trkpt>
      <trkpt lat="49.03175" lon="2.05818">
        <ele>68</ele>
        <time>2012-08-10T14:51:34.000Z</time>
      </trkpt>
      <trkpt lat="49.03179" lon="2.05821">
        <ele>68</ele>
        <time>2012-08-10T14:51:35.000Z</time>
      </trkpt>
      <trkpt lat="49.03185" lon="2.05821">
        <ele>69</ele>
        <time>2012-08-10T14:51:36.000Z</time>
      </trkpt>
      <trkpt lat="49.0319" lon="2.05821">
        <ele>69</ele>
        <time>2012-08-10T14:51:37.000Z</time>
      </trkpt>
      <trkpt lat="49.03196" lon="2.05818">
        <ele>69</ele>
        <time>2012-08-10T14:51:38.000Z</time>
      </trkpt>
      <trkpt lat="49.03202" lon="2.05817">
        <ele>69</ele>
        <time>2012-08-10T14:51:39.000Z</time>
      </trkpt>
      <trkpt lat="49.03209" lon="2.05813">
        <ele>69</ele>
        <time>2012-08-10T14:51:40.000Z</time>
      </trkpt>
      <trkpt lat="49.03215" lon="2.0581">
        <ele>70</ele>
        <time>2012-08-10T14:51:41.000Z</time>
      </trkpt>
      <trkpt lat="49.0322" lon="2.05808">
        <ele>70</ele>
        <time>2012-08-10T14:51:42.000Z</time>
      </trkpt>
      <trkpt lat="49.03227" lon="2.05803">
        <ele>70</ele>
        <time>2012-08-10T14:51:44.000Z</time>
      </trkpt>
      <trkpt lat="49.03233" lon="2.05799">
        <ele>71</ele>
        <time>2012-08-10T14:51:45.000Z</time>
      </trkpt>
      <trkpt lat="49.03242" lon="2.05795">
        <ele>70</ele>
        <time>2012-08-10T14:51:47.000Z</time>
      </trkpt>
      <trkpt lat="49.03251" lon="2.0579">
        <ele>69</ele>
        <time>2012-08-10T14:51:49.000Z</time>
      </trkpt>
      <trkpt lat="49.03258" lon="2.05785">
        <ele>68</ele>
        <time>2012-08-10T14:51:51.000Z</time>
      </trkpt>
      <trkpt lat="49.03263" lon="2.05783">
        <ele>67</ele>
        <time>2012-08-10T14:51:52.000Z</time>
      </trkpt>
      <trkpt lat="49.03267" lon="2.0578">
        <ele>66</ele>
        <time>2012-08-10T14:51:53.000Z</time>
      </trkpt>
      <trkpt lat="49.03272" lon="2.05776">
        <ele>66</ele>
        <time>2012-08-10T14:51:54.000Z</time>
      </trkpt>
      <trkpt lat="49.03277" lon="2.05773">
        <ele>65</ele>
        <time>2012-08-10T14:51:55.000Z</time>
      </trkpt>
      <trkpt lat="49.03283" lon="2.0577">
        <ele>64</ele>
        <time>2012-08-10T14:51:56.000Z</time>
      </trkpt>
      <trkpt lat="49.03289" lon="2.05767">
        <ele>63</ele>
        <time>2012-08-10T14:51:57.000Z</time>
      </trkpt>
      <trkpt lat="49.03294" lon="2.05765">
        <ele>64</ele>
        <time>2012-08-10T14:51:58.000Z</time>
      </trkpt>
      <trkpt lat="49.03299" lon="2.05762">
        <ele>64</ele>
        <time>2012-08-10T14:51:59.000Z</time>
      </trkpt>
      <trkpt lat="49.03307" lon="2.05758">
        <ele>64</ele>
        <time>2012-08-10T14:52:01.000Z</time>
      </trkpt>
      <trkpt lat="49.03315" lon="2.05753">
        <ele>64</ele>
        <time>2012-08-10T14:52:03.000Z</time>
      </trkpt>
      <trkpt lat="49.03321" lon="2.0575">
        <ele>64</ele>
        <time>2012-08-10T14:52:04.000Z</time>
      </trkpt>
      <trkpt lat="49.03326" lon="2.05748">
        <ele>64</ele>
        <time>2012-08-10T14:52:05.000Z</time>
      </trkpt>
      <trkpt lat="49.03332" lon="2.05742">
        <ele>62</ele>
        <time>2012-08-10T14:52:06.000Z</time>
      </trkpt>
      <trkpt lat="49.03338" lon="2.05738">
        <ele>60</ele>
        <time>2012-08-10T14:52:07.000Z</time>
      </trkpt>
      <trkpt lat="49.03344" lon="2.05738">
        <ele>60</ele>
        <time>2012-08-10T14:52:08.000Z</time>
      </trkpt>
      <trkpt lat="49.03361" lon="2.05734">
        <ele>60</ele>
        <time>2012-08-10T14:52:11.000Z</time>
      </trkpt>
      <trkpt lat="49.0337" lon="2.05731">
        <ele>60</ele>
        <time>2012-08-10T14:52:12.000Z</time>
      </trkpt>
      <trkpt lat="49.03377" lon="2.05729">
        <ele>60</ele>
        <time>2012-08-10T14:52:13.000Z</time>
      </trkpt>
      <trkpt lat="49.03384" lon="2.05726">
        <ele>61</ele>
        <time>2012-08-10T14:52:14.000Z</time>
      </trkpt>
      <trkpt lat="49.03391" lon="2.05725">
        <ele>62</ele>
        <time>2012-08-10T14:52:15.000Z</time>
      </trkpt>
      <trkpt lat="49.03398" lon="2.05725">
        <ele>61</ele>
        <time>2012-08-10T14:52:16.000Z</time>
      </trkpt>
      <trkpt lat="49.03403" lon="2.05725">
        <ele>62</ele>
        <time>2012-08-10T14:52:17.000Z</time>
      </trkpt>
      <trkpt lat="49.03408" lon="2.05724">
        <ele>62</ele>
        <time>2012-08-10T14:52:18.000Z</time>
      </trkpt>
      <trkpt lat="49.03413" lon="2.05722">
        <ele>62</ele>
        <time>2012-08-10T14:52:19.000Z</time>
      </trkpt>
      <trkpt lat="49.03419" lon="2.0572">
        <ele>63</ele>
        <time>2012-08-10T14:52:20.000Z</time>
      </trkpt>
      <trkpt lat="49.03427" lon="2.05717">
        <ele>63</ele>
        <time>2012-08-10T14:52:22.000Z</time>
      </trkpt>
      <trkpt lat="49.03435" lon="2.05712">
        <ele>64</ele>
        <time>2012-08-10T14:52:24.000Z</time>
      </trkpt>
      <trkpt lat="49.03439" lon="2.05709">
        <ele>65</ele>
        <time>2012-08-10T14:52:25.000Z</time>
      </trkpt>
      <trkpt lat="49.03443" lon="2.05706">
        <ele>66</ele>
        <time>2012-08-10T14:52:26.000Z</time>
      </trkpt>
      <trkpt lat="49.03448" lon="2.05703">
        <ele>66</ele>
        <time>2012-08-10T14:52:27.000Z</time>
      </trkpt>
      <trkpt lat="49.03456" lon="2.05697">
        <ele>67</ele>
        <time>2012-08-10T14:52:29.000Z</time>
      </trkpt>
      <trkpt lat="49.03465" lon="2.05695">
        <ele>67</ele>
        <time>2012-08-10T14:52:31.000Z</time>
      </trkpt>
      <trkpt lat="49.03473" lon="2.05693">
        <ele>67</ele>
        <time>2012-08-10T14:52:33.000Z</time>
      </trkpt>
      <trkpt lat="49.03478" lon="2.05693">
        <ele>67</ele>
        <time>2012-08-10T14:52:34.000Z</time>
      </trkpt>
      <trkpt lat="49.03485" lon="2.05689">
        <ele>66</ele>
        <time>2012-08-10T14:52:36.000Z</time>
      </trkpt>
      <trkpt lat="49.03494" lon="2.05684">
        <ele>66</ele>
        <time>2012-08-10T14:52:38.000Z</time>
      </trkpt>
      <trkpt lat="49.03503" lon="2.05683">
        <ele>67</ele>
        <time>2012-08-10T14:52:40.000Z</time>
      </trkpt>
      <trkpt lat="49.03509" lon="2.05681">
        <ele>68</ele>
        <time>2012-08-10T14:52:41.000Z</time>
      </trkpt>
      <trkpt lat="49.03514" lon="2.0568">
        <ele>69</ele>
        <time>2012-08-10T14:52:42.000Z</time>
      </trkpt>
      <trkpt lat="49.0352" lon="2.05677">
        <ele>69</ele>
        <time>2012-08-10T14:52:44.000Z</time>
      </trkpt>
      <trkpt lat="49.03526" lon="2.05671">
        <ele>68</ele>
        <time>2012-08-10T14:52:47.000Z</time>
      </trkpt>
      <trkpt lat="49.0353" lon="2.05666">
        <ele>66</ele>
        <time>2012-08-10T14:52:51.000Z</time>
      </trkpt>
      <trkpt lat="49.03536" lon="2.05662">
        <ele>65</ele>
        <time>2012-08-10T14:53:26.000Z</time>
      </trkpt>
      <trkpt lat="49.03544" lon="2.05659">
        <ele>66</ele>
        <time>2012-08-10T14:53:28.000Z</time>
      </trkpt>
      <trkpt lat="49.0355" lon="2.05657">
        <ele>66</ele>
        <time>2012-08-10T14:53:29.000Z</time>
      </trkpt>
      <trkpt lat="49.03555" lon="2.05655">
        <ele>67</ele>
        <time>2012-08-10T14:53:30.000Z</time>
      </trkpt>
      <trkpt lat="49.0356" lon="2.05652">
        <ele>68</ele>
        <time>2012-08-10T14:53:31.000Z</time>
      </trkpt>
      <trkpt lat="49.03565" lon="2.0565">
        <ele>68</ele>
        <time>2012-08-10T14:53:32.000Z</time>
      </trkpt>
      <trkpt lat="49.03572" lon="2.05643">
        <ele>67</ele>
        <time>2012-08-10T14:53:34.000Z</time>
      </trkpt>
      <trkpt lat="49.0358" lon="2.0564">
        <ele>65</ele>
        <time>2012-08-10T14:53:35.000Z</time>
      </trkpt>
      <trkpt lat="49.03587" lon="2.05637">
        <ele>65</ele>
        <time>2012-08-10T14:53:36.000Z</time>
      </trkpt>
      <trkpt lat="49.03595" lon="2.05633">
        <ele>66</ele>
        <time>2012-08-10T14:53:38.000Z</time>
      </trkpt>
      <trkpt lat="49.03602" lon="2.0563">
        <ele>67</ele>
        <time>2012-08-10T14:53:40.000Z</time>
      </trkpt>
      <trkpt lat="49.03609" lon="2.05627">
        <ele>68</ele>
        <time>2012-08-10T14:53:42.000Z</time>
      </trkpt>
      <trkpt lat="49.03618" lon="2.05622">
        <ele>69</ele>
        <time>2012-08-10T14:53:44.000Z</time>
      </trkpt>
      <trkpt lat="49.03626" lon="2.05615">
        <ele>68</ele>
        <time>2012-08-10T14:53:46.000Z</time>
      </trkpt>
      <trkpt lat="49.03631" lon="2.05612">
        <ele>68</ele>
        <time>2012-08-10T14:53:47.000Z</time>
      </trkpt>
      <trkpt lat="49.03636" lon="2.05608">
        <ele>69</ele>
        <time>2012-08-10T14:53:48.000Z</time>
      </trkpt>
      <trkpt lat="49.03641" lon="2.056">
        <ele>65</ele>
        <time>2012-08-10T14:53:49.000Z</time>
      </trkpt>
      <trkpt lat="49.03647" lon="2.05593">
        <ele>63</ele>
        <time>2012-08-10T14:53:50.000Z</time>
      </trkpt>
      <trkpt lat="49.03653" lon="2.0559">
        <ele>67</ele>
        <time>2012-08-10T14:53:52.000Z</time>
      </trkpt>
      <trkpt lat="49.0366" lon="2.05586">
        <ele>68</ele>
        <time>2012-08-10T14:53:54.000Z</time>
      </trkpt>
      <trkpt lat="49.03668" lon="2.05581">
        <ele>68</ele>
        <time>2012-08-10T14:53:56.000Z</time>
      </trkpt>
      <trkpt lat="49.03673" lon="2.05578">
        <ele>68</ele>
        <time>2012-08-10T14:53:57.000Z</time>
      </trkpt>
      <trkpt lat="49.03679" lon="2.05575">
        <ele>67</ele>
        <time>2012-08-10T14:53:58.000Z</time>
      </trkpt>
      <trkpt lat="49.03684" lon="2.05573">
        <ele>67</ele>
        <time>2012-08-10T14:53:59.000Z</time>
      </trkpt>
      <trkpt lat="49.03689" lon="2.0557">
        <ele>67</ele>
        <time>2012-08-10T14:54:00.000Z</time>
      </trkpt>
      <trkpt lat="49.03694" lon="2.05568">
        <ele>67</ele>
        <time>2012-08-10T14:54:01.000Z</time>
      </trkpt>
      <trkpt lat="49.03699" lon="2.05565">
        <ele>67</ele>
        <time>2012-08-10T14:54:02.000Z</time>
      </trkpt>
      <trkpt lat="49.03707" lon="2.05558">
        <ele>66</ele>
        <time>2012-08-10T14:54:04.000Z</time>
      </trkpt>
      <trkpt lat="49.03715" lon="2.05555">
        <ele>66</ele>
        <time>2012-08-10T14:54:05.000Z</time>
      </trkpt>
      <trkpt lat="49.03722" lon="2.05553">
        <ele>65</ele>
        <time>2012-08-10T14:54:06.000Z</time>
      </trkpt>
      <trkpt lat="49.03728" lon="2.05552">
        <ele>65</ele>
        <time>2012-08-10T14:54:07.000Z</time>
      </trkpt>
      <trkpt lat="49.03734" lon="2.0555">
        <ele>65</ele>
        <time>2012-08-10T14:54:08.000Z</time>
      </trkpt>
      <trkpt lat="49.03738" lon="2.0555">
        <ele>64</ele>
        <time>2012-08-10T14:54:09.000Z</time>
      </trkpt>
      <trkpt lat="49.03748" lon="2.05547">
        <ele>65</ele>
        <time>2012-08-10T14:54:11.000Z</time>
      </trkpt>
      <trkpt lat="49.03756" lon="2.05544">
        <ele>65</ele>
        <time>2012-08-10T14:54:13.000Z</time>
      </trkpt>
      <trkpt lat="49.03764" lon="2.05539">
        <ele>65</ele>
        <time>2012-08-10T14:54:15.000Z</time>
      </trkpt>
      <trkpt lat="49.03768" lon="2.05536">
        <ele>66</ele>
        <time>2012-08-10T14:54:16.000Z</time>
      </trkpt>
      <trkpt lat="49.03778" lon="2.0553">
        <ele>67</ele>
        <time>2012-08-10T14:54:18.000Z</time>
      </trkpt>
      <trkpt lat="49.03782" lon="2.05528">
        <ele>68</ele>
        <time>2012-08-10T14:54:19.000Z</time>
      </trkpt>
      <trkpt lat="49.03787" lon="2.05525">
        <ele>68</ele>
        <time>2012-08-10T14:54:20.000Z</time>
      </trkpt>
      <trkpt lat="49.03794" lon="2.05521">
        <ele>68</ele>
        <time>2012-08-10T14:54:22.000Z</time>
      </trkpt>
      <trkpt lat="49.03803" lon="2.05514">
        <ele>67</ele>
        <time>2012-08-10T14:54:24.000Z</time>
      </trkpt>
      <trkpt lat="49.03808" lon="2.05509">
        <ele>65</ele>
        <time>2012-08-10T14:54:25.000Z</time>
      </trkpt>
      <trkpt lat="49.03812" lon="2.05501">
        <ele>63</ele>
        <time>2012-08-10T14:54:26.000Z</time>
      </trkpt>
      <trkpt lat="49.03817" lon="2.05495">
        <ele>63</ele>
        <time>2012-08-10T14:54:27.000Z</time>
      </trkpt>
      <trkpt lat="49.03824" lon="2.05491">
        <ele>62</ele>
        <time>2012-08-10T14:54:28.000Z</time>
      </trkpt>
      <trkpt lat="49.03831" lon="2.05488">
        <ele>61</ele>
        <time>2012-08-10T14:54:29.000Z</time>
      </trkpt>
      <trkpt lat="49.03837" lon="2.05482">
        <ele>61</ele>
        <time>2012-08-10T14:54:30.000Z</time>
      </trkpt>
      <trkpt lat="49.03843" lon="2.05481">
        <ele>63</ele>
        <time>2012-08-10T14:54:31.000Z</time>
      </trkpt>
      <trkpt lat="49.03849" lon="2.05478">
        <ele>64</ele>
        <time>2012-08-10T14:54:32.000Z</time>
      </trkpt>
      <trkpt lat="49.03854" lon="2.05475">
        <ele>64</ele>
        <time>2012-08-10T14:54:33.000Z</time>
      </trkpt>
      <trkpt lat="49.03863" lon="2.05468">
        <ele>65</ele>
        <time>2012-08-10T14:54:35.000Z</time>
      </trkpt>
      <trkpt lat="49.03868" lon="2.05464">
        <ele>65</ele>
        <time>2012-08-10T14:54:36.000Z</time>
      </trkpt>
      <trkpt lat="49.03873" lon="2.0546">
        <ele>66</ele>
        <time>2012-08-10T14:54:37.000Z</time>
      </trkpt>
      <trkpt lat="49.03877" lon="2.05456">
        <ele>67</ele>
        <time>2012-08-10T14:54:38.000Z</time>
      </trkpt>
      <trkpt lat="49.03883" lon="2.05452">
        <ele>66</ele>
        <time>2012-08-10T14:54:39.000Z</time>
      </trkpt>
      <trkpt lat="49.03888" lon="2.05448">
        <ele>67</ele>
        <time>2012-08-10T14:54:40.000Z</time>
      </trkpt>
      <trkpt lat="49.03892" lon="2.05444">
        <ele>67</ele>
        <time>2012-08-10T14:54:41.000Z</time>
      </trkpt>
      <trkpt lat="49.03896" lon="2.0544">
        <ele>67</ele>
        <time>2012-08-10T14:54:42.000Z</time>
      </trkpt>
      <trkpt lat="49.03901" lon="2.05437">
        <ele>67</ele>
        <time>2012-08-10T14:54:43.000Z</time>
      </trkpt>
      <trkpt lat="49.03905" lon="2.05434">
        <ele>67</ele>
        <time>2012-08-10T14:54:44.000Z</time>
      </trkpt>
      <trkpt lat="49.03913" lon="2.05428">
        <ele>68</ele>
        <time>2012-08-10T14:54:46.000Z</time>
      </trkpt>
      <trkpt lat="49.03919" lon="2.05424">
        <ele>68</ele>
        <time>2012-08-10T14:54:47.000Z</time>
      </trkpt>
      <trkpt lat="49.03924" lon="2.0542">
        <ele>69</ele>
        <time>2012-08-10T14:54:48.000Z</time>
      </trkpt>
      <trkpt lat="49.03928" lon="2.05417">
        <ele>69</ele>
        <time>2012-08-10T14:54:49.000Z</time>
      </trkpt>
      <trkpt lat="49.03933" lon="2.05414">
        <ele>69</ele>
        <time>2012-08-10T14:54:50.000Z</time>
      </trkpt>
      <trkpt lat="49.03937" lon="2.05409">
        <ele>69</ele>
        <time>2012-08-10T14:54:51.000Z</time>
      </trkpt>
      <trkpt lat="49.03943" lon="2.05405">
        <ele>68</ele>
        <time>2012-08-10T14:54:52.000Z</time>
      </trkpt>
      <trkpt lat="49.03948" lon="2.05398">
        <ele>68</ele>
        <time>2012-08-10T14:54:53.000Z</time>
      </trkpt>
      <trkpt lat="49.03952" lon="2.05393">
        <ele>69</ele>
        <time>2012-08-10T14:54:54.000Z</time>
      </trkpt>
      <trkpt lat="49.03957" lon="2.05387">
        <ele>68</ele>
        <time>2012-08-10T14:54:55.000Z</time>
      </trkpt>
      <trkpt lat="49.03962" lon="2.05382">
        <ele>67</ele>
        <time>2012-08-10T14:54:56.000Z</time>
      </trkpt>
      <trkpt lat="49.03966" lon="2.05377">
        <ele>67</ele>
        <time>2012-08-10T14:54:57.000Z</time>
      </trkpt>
      <trkpt lat="49.03971" lon="2.05372">
        <ele>68</ele>
        <time>2012-08-10T14:54:58.000Z</time>
      </trkpt>
      <trkpt lat="49.03976" lon="2.05369">
        <ele>67</ele>
        <time>2012-08-10T14:54:59.000Z</time>
      </trkpt>
      <trkpt lat="49.0398" lon="2.05363">
        <ele>67</ele>
        <time>2012-08-10T14:55:00.000Z</time>
      </trkpt>
      <trkpt lat="49.03984" lon="2.05357">
        <ele>67</ele>
        <time>2012-08-10T14:55:01.000Z</time>
      </trkpt>
      <trkpt lat="49.03988" lon="2.05353">
        <ele>66</ele>
        <time>2012-08-10T14:55:02.000Z</time>
      </trkpt>
      <trkpt lat="49.03993" lon="2.05348">
        <ele>66</ele>
        <time>2012-08-10T14:55:03.000Z</time>
      </trkpt>
      <trkpt lat="49.03998" lon="2.05343">
        <ele>66</ele>
        <time>2012-08-10T14:55:04.000Z</time>
      </trkpt>
      <trkpt lat="49.04002" lon="2.05339">
        <ele>66</ele>
        <time>2012-08-10T14:55:05.000Z</time>
      </trkpt>
      <trkpt lat="49.04007" lon="2.05334">
        <ele>66</ele>
        <time>2012-08-10T14:55:06.000Z</time>
      </trkpt>
      <trkpt lat="49.04011" lon="2.05328">
        <ele>66</ele>
        <time>2012-08-10T14:55:07.000Z</time>
      </trkpt>
      <trkpt lat="49.04016" lon="2.05323">
        <ele>66</ele>
        <time>2012-08-10T14:55:08.000Z</time>
      </trkpt>
      <trkpt lat="49.04019" lon="2.05317">
        <ele>65</ele>
        <time>2012-08-10T14:55:09.000Z</time>
      </trkpt>
      <trkpt lat="49.04026" lon="2.05305">
        <ele>64</ele>
        <time>2012-08-10T14:55:11.000Z</time>
      </trkpt>
      <trkpt lat="49.0403" lon="2.05299">
        <ele>65</ele>
        <time>2012-08-10T14:55:12.000Z</time>
      </trkpt>
      <trkpt lat="49.04033" lon="2.05292">
        <ele>65</ele>
        <time>2012-08-10T14:55:13.000Z</time>
      </trkpt>
      <trkpt lat="49.04037" lon="2.05285">
        <ele>65</ele>
        <time>2012-08-10T14:55:14.000Z</time>
      </trkpt>
      <trkpt lat="49.04039" lon="2.05278">
        <ele>66</ele>
        <time>2012-08-10T14:55:15.000Z</time>
      </trkpt>
      <trkpt lat="49.04044" lon="2.05272">
        <ele>65</ele>
        <time>2012-08-10T14:55:16.000Z</time>
      </trkpt>
      <trkpt lat="49.04047" lon="2.05265">
        <ele>65</ele>
        <time>2012-08-10T14:55:17.000Z</time>
      </trkpt>
      <trkpt lat="49.0405" lon="2.05258">
        <ele>65</ele>
        <time>2012-08-10T14:55:18.000Z</time>
      </trkpt>
      <trkpt lat="49.04053" lon="2.05252">
        <ele>65</ele>
        <time>2012-08-10T14:55:19.000Z</time>
      </trkpt>
      <trkpt lat="49.04056" lon="2.05244">
        <ele>65</ele>
        <time>2012-08-10T14:55:20.000Z</time>
      </trkpt>
      <trkpt lat="49.04059" lon="2.05237">
        <ele>66</ele>
        <time>2012-08-10T14:55:21.000Z</time>
      </trkpt>
      <trkpt lat="49.04061" lon="2.0523">
        <ele>65</ele>
        <time>2012-08-10T14:55:22.000Z</time>
      </trkpt>
      <trkpt lat="49.04064" lon="2.05223">
        <ele>65</ele>
        <time>2012-08-10T14:55:23.000Z</time>
      </trkpt>
      <trkpt lat="49.04066" lon="2.05216">
        <ele>65</ele>
        <time>2012-08-10T14:55:24.000Z</time>
      </trkpt>
      <trkpt lat="49.04069" lon="2.05209">
        <ele>65</ele>
        <time>2012-08-10T14:55:25.000Z</time>
      </trkpt>
      <trkpt lat="49.0407" lon="2.05202">
        <ele>66</ele>
        <time>2012-08-10T14:55:26.000Z</time>
      </trkpt>
      <trkpt lat="49.04072" lon="2.05194">
        <ele>66</ele>
        <time>2012-08-10T14:55:27.000Z</time>
      </trkpt>
      <trkpt lat="49.04073" lon="2.05186">
        <ele>65</ele>
        <time>2012-08-10T14:55:28.000Z</time>
      </trkpt>
      <trkpt lat="49.04075" lon="2.05178">
        <ele>66</ele>
        <time>2012-08-10T14:55:29.000Z</time>
      </trkpt>
      <trkpt lat="49.04076" lon="2.0517">
        <ele>66</ele>
        <time>2012-08-10T14:55:30.000Z</time>
      </trkpt>
      <trkpt lat="49.04076" lon="2.05162">
        <ele>66</ele>
        <time>2012-08-10T14:55:31.000Z</time>
      </trkpt>
      <trkpt lat="49.04076" lon="2.05155">
        <ele>66</ele>
        <time>2012-08-10T14:55:32.000Z</time>
      </trkpt>
      <trkpt lat="49.04076" lon="2.05147">
        <ele>66</ele>
        <time>2012-08-10T14:55:33.000Z</time>
      </trkpt>
      <trkpt lat="49.04077" lon="2.05139">
        <ele>66</ele>
        <time>2012-08-10T14:55:34.000Z</time>
      </trkpt>
      <trkpt lat="49.04078" lon="2.05132">
        <ele>65</ele>
        <time>2012-08-10T14:55:35.000Z</time>
      </trkpt>
      <trkpt lat="49.0408" lon="2.05124">
        <ele>66</ele>
        <time>2012-08-10T14:55:36.000Z</time>
      </trkpt>
      <trkpt lat="49.04082" lon="2.05116">
        <ele>65</ele>
        <time>2012-08-10T14:55:37.000Z</time>
      </trkpt>
      <trkpt lat="49.04084" lon="2.0511">
        <ele>65</ele>
        <time>2012-08-10T14:55:38.000Z</time>
      </trkpt>
      <trkpt lat="49.04086" lon="2.05102">
        <ele>65</ele>
        <time>2012-08-10T14:55:39.000Z</time>
      </trkpt>
      <trkpt lat="49.04087" lon="2.05094">
        <ele>65</ele>
        <time>2012-08-10T14:55:40.000Z</time>
      </trkpt>
      <trkpt lat="49.04089" lon="2.05086">
        <ele>66</ele>
        <time>2012-08-10T14:55:41.000Z</time>
      </trkpt>
      <trkpt lat="49.0409" lon="2.05079">
        <ele>66</ele>
        <time>2012-08-10T14:55:42.000Z</time>
      </trkpt>
      <trkpt lat="49.04091" lon="2.05071">
        <ele>66</ele>
        <time>2012-08-10T14:55:43.000Z</time>
      </trkpt>
      <trkpt lat="49.04091" lon="2.05063">
        <ele>66</ele>
        <time>2012-08-10T14:55:44.000Z</time>
      </trkpt>
      <trkpt lat="49.04092" lon="2.05055">
        <ele>66</ele>
        <time>2012-08-10T14:55:45.000Z</time>
      </trkpt>
      <trkpt lat="49.04092" lon="2.05047">
        <ele>66</ele>
        <time>2012-08-10T14:55:46.000Z</time>
      </trkpt>
      <trkpt lat="49.04092" lon="2.05039">
        <ele>66</ele>
        <time>2012-08-10T14:55:47.000Z</time>
      </trkpt>
      <trkpt lat="49.04092" lon="2.0503">
        <ele>66</ele>
        <time>2012-08-10T14:55:48.000Z</time>
      </trkpt>
      <trkpt lat="49.04093" lon="2.05022">
        <ele>65</ele>
        <time>2012-08-10T14:55:49.000Z</time>
      </trkpt>
      <trkpt lat="49.04093" lon="2.05014">
        <ele>65</ele>
        <time>2012-08-10T14:55:50.000Z</time>
      </trkpt>
      <trkpt lat="49.04092" lon="2.05006">
        <ele>65</ele>
        <time>2012-08-10T14:55:51.000Z</time>
      </trkpt>
      <trkpt lat="49.04093" lon="2.04998">
        <ele>66</ele>
        <time>2012-08-10T14:55:52.000Z</time>
      </trkpt>
      <trkpt lat="49.04093" lon="2.04991">
        <ele>66</ele>
        <time>2012-08-10T14:55:53.000Z</time>
      </trkpt>
      <trkpt lat="49.04092" lon="2.04982">
        <ele>65</ele>
        <time>2012-08-10T14:55:54.000Z</time>
      </trkpt>
      <trkpt lat="49.04092" lon="2.04974">
        <ele>65</ele>
        <time>2012-08-10T14:55:55.000Z</time>
      </trkpt>
      <trkpt lat="49.04091" lon="2.04965">
        <ele>65</ele>
        <time>2012-08-10T14:55:56.000Z</time>
      </trkpt>
      <trkpt lat="49.0409" lon="2.04956">
        <ele>66</ele>
        <time>2012-08-10T14:55:57.000Z</time>
      </trkpt>
      <trkpt lat="49.0409" lon="2.04949">
        <ele>66</ele>
        <time>2012-08-10T14:55:58.000Z</time>
      </trkpt>
      <trkpt lat="49.04089" lon="2.04941">
        <ele>66</ele>
        <time>2012-08-10T14:55:59.000Z</time>
      </trkpt>
      <trkpt lat="49.04088" lon="2.04932">
        <ele>66</ele>
        <time>2012-08-10T14:56:00.000Z</time>
      </trkpt>
      <trkpt lat="49.04086" lon="2.04924">
        <ele>65</ele>
        <time>2012-08-10T14:56:01.000Z</time>
      </trkpt>
      <trkpt lat="49.04085" lon="2.04916">
        <ele>65</ele>
        <time>2012-08-10T14:56:02.000Z</time>
      </trkpt>
      <trkpt lat="49.04083" lon="2.04908">
        <ele>64</ele>
        <time>2012-08-10T14:56:03.000Z</time>
      </trkpt>
      <trkpt lat="49.04082" lon="2.049">
        <ele>64</ele>
        <time>2012-08-10T14:56:04.000Z</time>
      </trkpt>
      <trkpt lat="49.0408" lon="2.04893">
        <ele>64</ele>
        <time>2012-08-10T14:56:05.000Z</time>
      </trkpt>
      <trkpt lat="49.04078" lon="2.04886">
        <ele>64</ele>
        <time>2012-08-10T14:56:06.000Z</time>
      </trkpt>
      <trkpt lat="49.04076" lon="2.04878">
        <ele>64</ele>
        <time>2012-08-10T14:56:07.000Z</time>
      </trkpt>
      <trkpt lat="49.04073" lon="2.0487">
        <ele>64</ele>
        <time>2012-08-10T14:56:08.000Z</time>
      </trkpt>
      <trkpt lat="49.04071" lon="2.04863">
        <ele>64</ele>
        <time>2012-08-10T14:56:09.000Z</time>
      </trkpt>
      <trkpt lat="49.04067" lon="2.04849">
        <ele>64</ele>
        <time>2012-08-10T14:56:11.000Z</time>
      </trkpt>
      <trkpt lat="49.04065" lon="2.04841">
        <ele>64</ele>
        <time>2012-08-10T14:56:12.000Z</time>
      </trkpt>
      <trkpt lat="49.04063" lon="2.04833">
        <ele>64</ele>
        <time>2012-08-10T14:56:13.000Z</time>
      </trkpt>
      <trkpt lat="49.04061" lon="2.04826">
        <ele>64</ele>
        <time>2012-08-10T14:56:14.000Z</time>
      </trkpt>
      <trkpt lat="49.0406" lon="2.04818">
        <ele>65</ele>
        <time>2012-08-10T14:56:15.000Z</time>
      </trkpt>
      <trkpt lat="49.04058" lon="2.04811">
        <ele>64</ele>
        <time>2012-08-10T14:56:16.000Z</time>
      </trkpt>
      <trkpt lat="49.04053" lon="2.048">
        <ele>65</ele>
        <time>2012-08-10T14:56:18.000Z</time>
      </trkpt>
      <trkpt lat="49.04048" lon="2.04787">
        <ele>65</ele>
        <time>2012-08-10T14:56:20.000Z</time>
      </trkpt>
      <trkpt lat="49.04047" lon="2.0478">
        <ele>65</ele>
        <time>2012-08-10T14:56:21.000Z</time>
      </trkpt>
      <trkpt lat="49.04045" lon="2.04772">
        <ele>65</ele>
        <time>2012-08-10T14:56:22.000Z</time>
      </trkpt>
      <trkpt lat="49.04043" lon="2.04765">
        <ele>64</ele>
        <time>2012-08-10T14:56:23.000Z</time>
      </trkpt>
      <trkpt lat="49.0404" lon="2.04758">
        <ele>65</ele>
        <time>2012-08-10T14:56:24.000Z</time>
      </trkpt>
      <trkpt lat="49.04038" lon="2.04751">
        <ele>65</ele>
        <time>2012-08-10T14:56:25.000Z</time>
      </trkpt>
      <trkpt lat="49.04036" lon="2.04744">
        <ele>64</ele>
        <time>2012-08-10T14:56:26.000Z</time>
      </trkpt>
      <trkpt lat="49.04034" lon="2.04738">
        <ele>66</ele>
        <time>2012-08-10T14:56:27.000Z</time>
      </trkpt>
      <trkpt lat="49.04031" lon="2.04731">
        <ele>66</ele>
        <time>2012-08-10T14:56:28.000Z</time>
      </trkpt>
      <trkpt lat="49.04027" lon="2.0472">
        <ele>67</ele>
        <time>2012-08-10T14:56:30.000Z</time>
      </trkpt>
      <trkpt lat="49.04026" lon="2.04713">
        <ele>67</ele>
        <time>2012-08-10T14:56:31.000Z</time>
      </trkpt>
      <trkpt lat="49.04026" lon="2.04701">
        <ele>67</ele>
        <time>2012-08-10T14:56:33.000Z</time>
      </trkpt>
      <trkpt lat="49.04023" lon="2.04695">
        <ele>67</ele>
        <time>2012-08-10T14:56:34.000Z</time>
      </trkpt>
      <trkpt lat="49.04021" lon="2.04687">
        <ele>65</ele>
        <time>2012-08-10T14:56:35.000Z</time>
      </trkpt>
      <trkpt lat="49.04016" lon="2.04675">
        <ele>64</ele>
        <time>2012-08-10T14:56:37.000Z</time>
      </trkpt>
      <trkpt lat="49.04013" lon="2.04669">
        <ele>63</ele>
        <time>2012-08-10T14:56:38.000Z</time>
      </trkpt>
      <trkpt lat="49.04008" lon="2.04659">
        <ele>63</ele>
        <time>2012-08-10T14:56:40.000Z</time>
      </trkpt>
      <trkpt lat="49.04004" lon="2.04649">
        <ele>64</ele>
        <time>2012-08-10T14:56:42.000Z</time>
      </trkpt>
      <trkpt lat="49.04001" lon="2.04638">
        <ele>64</ele>
        <time>2012-08-10T14:56:44.000Z</time>
      </trkpt>
      <trkpt lat="49.03998" lon="2.04624">
        <ele>64</ele>
        <time>2012-08-10T14:56:46.000Z</time>
      </trkpt>
      <trkpt lat="49.03993" lon="2.04612">
        <ele>63</ele>
        <time>2012-08-10T14:56:48.000Z</time>
      </trkpt>
      <trkpt lat="49.03988" lon="2.04606">
        <ele>64</ele>
        <time>2012-08-10T14:56:49.000Z</time>
      </trkpt>
      <trkpt lat="49.03984" lon="2.046">
        <ele>64</ele>
        <time>2012-08-10T14:56:50.000Z</time>
      </trkpt>
      <trkpt lat="49.03973" lon="2.04596">
        <ele>64</ele>
        <time>2012-08-10T14:56:52.000Z</time>
      </trkpt>
      <trkpt lat="49.03965" lon="2.04592">
        <ele>64</ele>
        <time>2012-08-10T14:56:54.000Z</time>
      </trkpt>
      <trkpt lat="49.03957" lon="2.04594">
        <ele>63</ele>
        <time>2012-08-10T14:56:55.000Z</time>
      </trkpt>
      <trkpt lat="49.03948" lon="2.04596">
        <ele>61</ele>
        <time>2012-08-10T14:56:56.000Z</time>
      </trkpt>
      <trkpt lat="49.03941" lon="2.0459">
        <ele>60</ele>
        <time>2012-08-10T14:56:58.000Z</time>
      </trkpt>
      <trkpt lat="49.03937" lon="2.04582">
        <ele>59</ele>
        <time>2012-08-10T14:56:59.000Z</time>
      </trkpt>
      <trkpt lat="49.03934" lon="2.04575">
        <ele>59</ele>
        <time>2012-08-10T14:57:00.000Z</time>
      </trkpt>
      <trkpt lat="49.03928" lon="2.04564">
        <ele>58</ele>
        <time>2012-08-10T14:57:02.000Z</time>
      </trkpt>
      <trkpt lat="49.03924" lon="2.04559">
        <ele>58</ele>
        <time>2012-08-10T14:57:03.000Z</time>
      </trkpt>
      <trkpt lat="49.03917" lon="2.0455">
        <ele>58</ele>
        <time>2012-08-10T14:57:05.000Z</time>
      </trkpt>
      <trkpt lat="49.03913" lon="2.04544">
        <ele>57</ele>
        <time>2012-08-10T14:57:06.000Z</time>
      </trkpt>
      <trkpt lat="49.0391" lon="2.04538">
        <ele>57</ele>
        <time>2012-08-10T14:57:07.000Z</time>
      </trkpt>
      <trkpt lat="49.03905" lon="2.04529">
        <ele>57</ele>
        <time>2012-08-10T14:57:09.000Z</time>
      </trkpt>
      <trkpt lat="49.039" lon="2.0452">
        <ele>56</ele>
        <time>2012-08-10T14:57:11.000Z</time>
      </trkpt>
      <trkpt lat="49.03896" lon="2.04512">
        <ele>57</ele>
        <time>2012-08-10T14:57:13.000Z</time>
      </trkpt>
      <trkpt lat="49.03892" lon="2.04507">
        <ele>58</ele>
        <time>2012-08-10T14:57:14.000Z</time>
      </trkpt>
      <trkpt lat="49.03888" lon="2.04503">
        <ele>59</ele>
        <time>2012-08-10T14:57:15.000Z</time>
      </trkpt>
      <trkpt lat="49.03877" lon="2.04499">
        <ele>61</ele>
        <time>2012-08-10T14:57:16.000Z</time>
      </trkpt>
      <trkpt lat="49.0387" lon="2.04496">
        <ele>61</ele>
        <time>2012-08-10T14:57:17.000Z</time>
      </trkpt>
      <trkpt lat="49.03864" lon="2.04495">
        <ele>61</ele>
        <time>2012-08-10T14:57:18.000Z</time>
      </trkpt>
      <trkpt lat="49.03859" lon="2.04496">
        <ele>62</ele>
        <time>2012-08-10T14:57:19.000Z</time>
      </trkpt>
      <trkpt lat="49.0385" lon="2.04494">
        <ele>63</ele>
        <time>2012-08-10T14:57:21.000Z</time>
      </trkpt>
      <trkpt lat="49.03843" lon="2.0449">
        <ele>62</ele>
        <time>2012-08-10T14:57:23.000Z</time>
      </trkpt>
      <trkpt lat="49.03836" lon="2.04481">
        <ele>63</ele>
        <time>2012-08-10T14:57:25.000Z</time>
      </trkpt>
      <trkpt lat="49.03833" lon="2.04476">
        <ele>63</ele>
        <time>2012-08-10T14:57:26.000Z</time>
      </trkpt>
      <trkpt lat="49.03826" lon="2.04467">
        <ele>63</ele>
        <time>2012-08-10T14:57:28.000Z</time>
      </trkpt>
      <trkpt lat="49.03823" lon="2.04462">
        <ele>62</ele>
        <time>2012-08-10T14:57:29.000Z</time>
      </trkpt>
      <trkpt lat="49.03817" lon="2.04454">
        <ele>62</ele>
        <time>2012-08-10T14:57:31.000Z</time>
      </trkpt>
      <trkpt lat="49.03813" lon="2.0445">
        <ele>63</ele>
        <time>2012-08-10T14:57:32.000Z</time>
      </trkpt>
      <trkpt lat="49.03807" lon="2.04442">
        <ele>64</ele>
        <time>2012-08-10T14:57:34.000Z</time>
      </trkpt>
      <trkpt lat="49.03803" lon="2.04438">
        <ele>64</ele>
        <time>2012-08-10T14:57:35.000Z</time>
      </trkpt>
      <trkpt lat="49.03796" lon="2.04433">
        <ele>65</ele>
        <time>2012-08-10T14:57:37.000Z</time>
      </trkpt>
      <trkpt lat="49.0379" lon="2.04423">
        <ele>66</ele>
        <time>2012-08-10T14:57:39.000Z</time>
      </trkpt>
      <trkpt lat="49.03784" lon="2.04414">
        <ele>66</ele>
        <time>2012-08-10T14:57:41.000Z</time>
      </trkpt>
      <trkpt lat="49.03779" lon="2.04405">
        <ele>67</ele>
        <time>2012-08-10T14:57:43.000Z</time>
      </trkpt>
      <trkpt lat="49.03774" lon="2.04397">
        <ele>68</ele>
        <time>2012-08-10T14:57:45.000Z</time>
      </trkpt>
      <trkpt lat="49.03769" lon="2.04389">
        <ele>69</ele>
        <time>2012-08-10T14:57:47.000Z</time>
      </trkpt>
      <trkpt lat="49.03763" lon="2.04384">
        <ele>70</ele>
        <time>2012-08-10T14:57:49.000Z</time>
      </trkpt>
      <trkpt lat="49.03756" lon="2.0438">
        <ele>70</ele>
        <time>2012-08-10T14:57:51.000Z</time>
      </trkpt>
      <trkpt lat="49.0375" lon="2.04376">
        <ele>70</ele>
        <time>2012-08-10T14:57:53.000Z</time>
      </trkpt>
      <trkpt lat="49.03743" lon="2.04371">
        <ele>71</ele>
        <time>2012-08-10T14:57:55.000Z</time>
      </trkpt>
      <trkpt lat="49.03738" lon="2.04366">
        <ele>71</ele>
        <time>2012-08-10T14:57:57.000Z</time>
      </trkpt>
      <trkpt lat="49.03734" lon="2.04361">
        <ele>72</ele>
        <time>2012-08-10T14:57:59.000Z</time>
      </trkpt>
      <trkpt lat="49.0373" lon="2.04355">
        <ele>73</ele>
        <time>2012-08-10T14:58:02.000Z</time>
      </trkpt>
      <trkpt lat="49.03726" lon="2.04348">
        <ele>73</ele>
        <time>2012-08-10T14:58:05.000Z</time>
      </trkpt>
      <trkpt lat="49.0373" lon="2.04345">
        <ele>73</ele>
        <time>2012-08-10T14:58:14.000Z</time>
      </trkpt>
      <trkpt lat="49.03736" lon="2.04339">
        <ele>72</ele>
        <time>2012-08-10T14:58:17.000Z</time>
      </trkpt>
      <trkpt lat="49.0374" lon="2.04334">
        <ele>72</ele>
        <time>2012-08-10T14:58:18.000Z</time>
      </trkpt>
      <trkpt lat="49.03746" lon="2.04328">
        <ele>72</ele>
        <time>2012-08-10T14:58:20.000Z</time>
      </trkpt>
      <trkpt lat="49.0375" lon="2.04324">
        <ele>73</ele>
        <time>2012-08-10T14:58:21.000Z</time>
      </trkpt>
      <trkpt lat="49.03757" lon="2.04315">
        <ele>73</ele>
        <time>2012-08-10T14:58:23.000Z</time>
      </trkpt>
      <trkpt lat="49.03761" lon="2.04311">
        <ele>74</ele>
        <time>2012-08-10T14:58:24.000Z</time>
      </trkpt>
      <trkpt lat="49.03767" lon="2.04304">
        <ele>74</ele>
        <time>2012-08-10T14:58:26.000Z</time>
      </trkpt>
      <trkpt lat="49.03772" lon="2.04295">
        <ele>75</ele>
        <time>2012-08-10T14:58:28.000Z</time>
      </trkpt>
      <trkpt lat="49.03778" lon="2.04287">
        <ele>74</ele>
        <time>2012-08-10T14:58:30.000Z</time>
      </trkpt>
      <trkpt lat="49.03784" lon="2.04279">
        <ele>75</ele>
        <time>2012-08-10T14:58:32.000Z</time>
      </trkpt>
      <trkpt lat="49.03792" lon="2.04271">
        <ele>75</ele>
        <time>2012-08-10T14:58:34.000Z</time>
      </trkpt>
      <trkpt lat="49.03796" lon="2.04267">
        <ele>75</ele>
        <time>2012-08-10T14:58:35.000Z</time>
      </trkpt>
      <trkpt lat="49.03802" lon="2.04259">
        <ele>74</ele>
        <time>2012-08-10T14:58:37.000Z</time>
      </trkpt>
      <trkpt lat="49.03809" lon="2.04253">
        <ele>74</ele>
        <time>2012-08-10T14:58:39.000Z</time>
      </trkpt>
      <trkpt lat="49.03814" lon="2.04248">
        <ele>74</ele>
        <time>2012-08-10T14:58:41.000Z</time>
      </trkpt>
      <trkpt lat="49.03819" lon="2.04241">
        <ele>75</ele>
        <time>2012-08-10T14:58:43.000Z</time>
      </trkpt>
      <trkpt lat="49.03823" lon="2.04237">
        <ele>75</ele>
        <time>2012-08-10T14:58:44.000Z</time>
      </trkpt>
      <trkpt lat="49.03827" lon="2.04232">
        <ele>75</ele>
        <time>2012-08-10T14:58:45.000Z</time>
      </trkpt>
      <trkpt lat="49.03831" lon="2.04228">
        <ele>75</ele>
        <time>2012-08-10T14:58:46.000Z</time>
      </trkpt>
      <trkpt lat="49.03836" lon="2.04222">
        <ele>74</ele>
        <time>2012-08-10T14:58:47.000Z</time>
      </trkpt>
      <trkpt lat="49.0384" lon="2.04217">
        <ele>75</ele>
        <time>2012-08-10T14:58:48.000Z</time>
      </trkpt>
      <trkpt lat="49.03844" lon="2.04213">
        <ele>75</ele>
        <time>2012-08-10T14:58:49.000Z</time>
      </trkpt>
      <trkpt lat="49.03848" lon="2.04208">
        <ele>75</ele>
        <time>2012-08-10T14:58:50.000Z</time>
      </trkpt>
      <trkpt lat="49.03852" lon="2.04204">
        <ele>74</ele>
        <time>2012-08-10T14:58:51.000Z</time>
      </trkpt>
      <trkpt lat="49.03856" lon="2.04199">
        <ele>74</ele>
        <time>2012-08-10T14:58:52.000Z</time>
      </trkpt>
      <trkpt lat="49.0386" lon="2.04194">
        <ele>75</ele>
        <time>2012-08-10T14:58:53.000Z</time>
      </trkpt>
      <trkpt lat="49.03867" lon="2.04187">
        <ele>74</ele>
        <time>2012-08-10T14:58:55.000Z</time>
      </trkpt>
      <trkpt lat="49.03871" lon="2.04184">
        <ele>74</ele>
        <time>2012-08-10T14:58:56.000Z</time>
      </trkpt>
      <trkpt lat="49.03875" lon="2.0418">
        <ele>74</ele>
        <time>2012-08-10T14:58:57.000Z</time>
      </trkpt>
      <trkpt lat="49.0388" lon="2.04175">
        <ele>74</ele>
        <time>2012-08-10T14:58:58.000Z</time>
      </trkpt>
      <trkpt lat="49.03884" lon="2.0417">
        <ele>74</ele>
        <time>2012-08-10T14:58:59.000Z</time>
      </trkpt>
      <trkpt lat="49.03888" lon="2.04165">
        <ele>74</ele>
        <time>2012-08-10T14:59:00.000Z</time>
      </trkpt>
      <trkpt lat="49.03893" lon="2.04161">
        <ele>74</ele>
        <time>2012-08-10T14:59:01.000Z</time>
      </trkpt>
      <trkpt lat="49.03897" lon="2.04156">
        <ele>74</ele>
        <time>2012-08-10T14:59:02.000Z</time>
      </trkpt>
      <trkpt lat="49.03901" lon="2.04152">
        <ele>74</ele>
        <time>2012-08-10T14:59:03.000Z</time>
      </trkpt>
      <trkpt lat="49.03905" lon="2.04147">
        <ele>74</ele>
        <time>2012-08-10T14:59:04.000Z</time>
      </trkpt>
      <trkpt lat="49.03908" lon="2.04142">
        <ele>74</ele>
        <time>2012-08-10T14:59:05.000Z</time>
      </trkpt>
      <trkpt lat="49.03913" lon="2.04139">
        <ele>73</ele>
        <time>2012-08-10T14:59:06.000Z</time>
      </trkpt>
      <trkpt lat="49.03917" lon="2.04134">
        <ele>73</ele>
        <time>2012-08-10T14:59:07.000Z</time>
      </trkpt>
      <trkpt lat="49.03921" lon="2.0413">
        <ele>73</ele>
        <time>2012-08-10T14:59:08.000Z</time>
      </trkpt>
      <trkpt lat="49.03925" lon="2.04125">
        <ele>72</ele>
        <time>2012-08-10T14:59:09.000Z</time>
      </trkpt>
      <trkpt lat="49.03933" lon="2.04117">
        <ele>72</ele>
        <time>2012-08-10T14:59:11.000Z</time>
      </trkpt>
      <trkpt lat="49.03937" lon="2.04112">
        <ele>73</ele>
        <time>2012-08-10T14:59:12.000Z</time>
      </trkpt>
      <trkpt lat="49.03941" lon="2.04106">
        <ele>72</ele>
        <time>2012-08-10T14:59:13.000Z</time>
      </trkpt>
      <trkpt lat="49.03944" lon="2.04102">
        <ele>73</ele>
        <time>2012-08-10T14:59:14.000Z</time>
      </trkpt>
      <trkpt lat="49.03948" lon="2.04097">
        <ele>73</ele>
        <time>2012-08-10T14:59:15.000Z</time>
      </trkpt>
      <trkpt lat="49.03952" lon="2.04091">
        <ele>73</ele>
        <time>2012-08-10T14:59:16.000Z</time>
      </trkpt>
      <trkpt lat="49.03956" lon="2.04087">
        <ele>73</ele>
        <time>2012-08-10T14:59:17.000Z</time>
      </trkpt>
      <trkpt lat="49.0396" lon="2.04081">
        <ele>73</ele>
        <time>2012-08-10T14:59:18.000Z</time>
      </trkpt>
      <trkpt lat="49.03965" lon="2.04077">
        <ele>73</ele>
        <time>2012-08-10T14:59:19.000Z</time>
      </trkpt>
      <trkpt lat="49.0397" lon="2.04072">
        <ele>73</ele>
        <time>2012-08-10T14:59:20.000Z</time>
      </trkpt>
      <trkpt lat="49.03973" lon="2.04066">
        <ele>73</ele>
        <time>2012-08-10T14:59:21.000Z</time>
      </trkpt>
      <trkpt lat="49.03978" lon="2.04061">
        <ele>73</ele>
        <time>2012-08-10T14:59:22.000Z</time>
      </trkpt>
      <trkpt lat="49.03982" lon="2.04056">
        <ele>73</ele>
        <time>2012-08-10T14:59:23.000Z</time>
      </trkpt>
      <trkpt lat="49.03986" lon="2.04052">
        <ele>73</ele>
        <time>2012-08-10T14:59:24.000Z</time>
      </trkpt>
      <trkpt lat="49.03989" lon="2.04047">
        <ele>73</ele>
        <time>2012-08-10T14:59:25.000Z</time>
      </trkpt>
      <trkpt lat="49.03993" lon="2.04042">
        <ele>74</ele>
        <time>2012-08-10T14:59:26.000Z</time>
      </trkpt>
      <trkpt lat="49.04" lon="2.04034">
        <ele>76</ele>
        <time>2012-08-10T14:59:28.000Z</time>
      </trkpt>
      <trkpt lat="49.04003" lon="2.04031">
        <ele>76</ele>
        <time>2012-08-10T14:59:29.000Z</time>
      </trkpt>
      <trkpt lat="49.04007" lon="2.04026">
        <ele>77</ele>
        <time>2012-08-10T14:59:31.000Z</time>
      </trkpt>
      <trkpt lat="49.04011" lon="2.04022">
        <ele>77</ele>
        <time>2012-08-10T14:59:33.000Z</time>
      </trkpt>
      <trkpt lat="49.04016" lon="2.04016">
        <ele>77</ele>
        <time>2012-08-10T14:59:35.000Z</time>
      </trkpt>
      <trkpt lat="49.04022" lon="2.04011">
        <ele>77</ele>
        <time>2012-08-10T14:59:37.000Z</time>
      </trkpt>
      <trkpt lat="49.04027" lon="2.04008">
        <ele>77</ele>
        <time>2012-08-10T14:59:39.000Z</time>
      </trkpt>
      <trkpt lat="49.04032" lon="2.04017">
        <ele>79</ele>
        <time>2012-08-10T14:59:41.000Z</time>
      </trkpt>
      <trkpt lat="49.04037" lon="2.04025">
        <ele>79</ele>
        <time>2012-08-10T14:59:43.000Z</time>
      </trkpt>
      <trkpt lat="49.04039" lon="2.04018">
        <ele>82</ele>
        <time>2012-08-10T14:59:47.000Z</time>
      </trkpt>
      <trkpt lat="49.04033" lon="2.04009">
        <ele>83</ele>
        <time>2012-08-10T14:59:49.000Z</time>
      </trkpt>
      <trkpt lat="49.04032" lon="2.04">
        <ele>82</ele>
        <time>2012-08-10T14:59:51.000Z</time>
      </trkpt>
      <trkpt lat="49.04034" lon="2.03991">
        <ele>81</ele>
        <time>2012-08-10T14:59:53.000Z</time>
      </trkpt>
      <trkpt lat="49.04039" lon="2.03987">
        <ele>82</ele>
        <time>2012-08-10T14:59:54.000Z</time>
      </trkpt>
      <trkpt lat="49.04045" lon="2.03981">
        <ele>82</ele>
        <time>2012-08-10T14:59:56.000Z</time>
      </trkpt>
      <trkpt lat="49.0405" lon="2.03975">
        <ele>82</ele>
        <time>2012-08-10T14:59:58.000Z</time>
      </trkpt>
      <trkpt lat="49.04054" lon="2.03968">
        <ele>82</ele>
        <time>2012-08-10T15:00:00.000Z</time>
      </trkpt>
      <trkpt lat="49.0406" lon="2.03962">
        <ele>82</ele>
        <time>2012-08-10T15:00:02.000Z</time>
      </trkpt>
      <trkpt lat="49.04066" lon="2.03957">
        <ele>82</ele>
        <time>2012-08-10T15:00:04.000Z</time>
      </trkpt>
      <trkpt lat="49.04069" lon="2.03951">
        <ele>82</ele>
        <time>2012-08-10T15:00:06.000Z</time>
      </trkpt>
      <trkpt lat="49.04073" lon="2.03947">
        <ele>82</ele>
        <time>2012-08-10T15:00:08.000Z</time>
      </trkpt>
      <trkpt lat="49.0408" lon="2.0394">
        <ele>83</ele>
        <time>2012-08-10T15:00:11.000Z</time>
      </trkpt>
      <trkpt lat="49.04086" lon="2.03935">
        <ele>84</ele>
        <time>2012-08-10T15:00:13.000Z</time>
      </trkpt>
      <trkpt lat="49.04089" lon="2.03928">
        <ele>84</ele>
        <time>2012-08-10T15:00:15.000Z</time>
      </trkpt>
      <trkpt lat="49.0409" lon="2.03921">
        <ele>84</ele>
        <time>2012-08-10T15:00:17.000Z</time>
      </trkpt>
      <trkpt lat="49.04084" lon="2.03912">
        <ele>85</ele>
        <time>2012-08-10T15:00:19.000Z</time>
      </trkpt>
      <trkpt lat="49.04081" lon="2.03903">
        <ele>86</ele>
        <time>2012-08-10T15:00:21.000Z</time>
      </trkpt>
      <trkpt lat="49.04078" lon="2.03894">
        <ele>87</ele>
        <time>2012-08-10T15:00:23.000Z</time>
      </trkpt>
      <trkpt lat="49.04076" lon="2.03884">
        <ele>87</ele>
        <time>2012-08-10T15:00:25.000Z</time>
      </trkpt>
      <trkpt lat="49.04073" lon="2.03878">
        <ele>88</ele>
        <time>2012-08-10T15:00:27.000Z</time>
      </trkpt>
      <trkpt lat="49.0407" lon="2.03872">
        <ele>88</ele>
        <time>2012-08-10T15:00:29.000Z</time>
      </trkpt>
      <trkpt lat="49.04065" lon="2.03866">
        <ele>88</ele>
        <time>2012-08-10T15:00:31.000Z</time>
      </trkpt>
      <trkpt lat="49.0406" lon="2.0386">
        <ele>89</ele>
        <time>2012-08-10T15:00:33.000Z</time>
      </trkpt>
      <trkpt lat="49.04055" lon="2.03854">
        <ele>89</ele>
        <time>2012-08-10T15:00:35.000Z</time>
      </trkpt>
      <trkpt lat="49.04051" lon="2.03847">
        <ele>89</ele>
        <time>2012-08-10T15:00:37.000Z</time>
      </trkpt>
      <trkpt lat="49.04046" lon="2.03841">
        <ele>89</ele>
        <time>2012-08-10T15:00:39.000Z</time>
      </trkpt>
      <trkpt lat="49.04042" lon="2.03834">
        <ele>89</ele>
        <time>2012-08-10T15:00:41.000Z</time>
      </trkpt>
      <trkpt lat="49.04036" lon="2.03828">
        <ele>89</ele>
        <time>2012-08-10T15:00:43.000Z</time>
      </trkpt>
      <trkpt lat="49.04031" lon="2.03818">
        <ele>89</ele>
        <time>2012-08-10T15:00:45.000Z</time>
      </trkpt>
      <trkpt lat="49.04028" lon="2.03807">
        <ele>88</ele>
        <time>2012-08-10T15:00:47.000Z</time>
      </trkpt>
      <trkpt lat="49.04029" lon="2.03798">
        <ele>88</ele>
        <time>2012-08-10T15:00:49.000Z</time>
      </trkpt>
      <trkpt lat="49.04032" lon="2.0379">
        <ele>88</ele>
        <time>2012-08-10T15:00:51.000Z</time>
      </trkpt>
      <trkpt lat="49.04036" lon="2.03781">
        <ele>89</ele>
        <time>2012-08-10T15:00:53.000Z</time>
      </trkpt>
      <trkpt lat="49.04037" lon="2.03771">
        <ele>89</ele>
        <time>2012-08-10T15:00:55.000Z</time>
      </trkpt>
      <trkpt lat="49.04034" lon="2.03765">
        <ele>89</ele>
        <time>2012-08-10T15:00:57.000Z</time>
      </trkpt>
      <trkpt lat="49.0403" lon="2.03759">
        <ele>89</ele>
        <time>2012-08-10T15:00:59.000Z</time>
      </trkpt>
      <trkpt lat="49.04025" lon="2.03754">
        <ele>90</ele>
        <time>2012-08-10T15:01:01.000Z</time>
      </trkpt>
      <trkpt lat="49.04021" lon="2.03748">
        <ele>90</ele>
        <time>2012-08-10T15:01:03.000Z</time>
      </trkpt>
      <trkpt lat="49.04017" lon="2.03742">
        <ele>90</ele>
        <time>2012-08-10T15:01:04.000Z</time>
      </trkpt>
      <trkpt lat="49.04015" lon="2.03734">
        <ele>90</ele>
        <time>2012-08-10T15:01:06.000Z</time>
      </trkpt>
      <trkpt lat="49.04015" lon="2.03722">
        <ele>90</ele>
        <time>2012-08-10T15:01:08.000Z</time>
      </trkpt>
      <trkpt lat="49.04016" lon="2.0371">
        <ele>89</ele>
        <time>2012-08-10T15:01:11.000Z</time>
      </trkpt>
      <trkpt lat="49.04017" lon="2.03702">
        <ele>89</ele>
        <time>2012-08-10T15:01:14.000Z</time>
      </trkpt>
      <trkpt lat="49.04019" lon="2.03696">
        <ele>91</ele>
        <time>2012-08-10T15:01:17.000Z</time>
      </trkpt>
      <trkpt lat="49.04021" lon="2.03686">
        <ele>89</ele>
        <time>2012-08-10T15:01:20.000Z</time>
      </trkpt>
      <trkpt lat="49.04022" lon="2.03677">
        <ele>89</ele>
        <time>2012-08-10T15:01:23.000Z</time>
      </trkpt>
      <trkpt lat="49.04024" lon="2.0367">
        <ele>91</ele>
        <time>2012-08-10T15:01:28.000Z</time>
      </trkpt>
      <trkpt lat="49.04023" lon="2.03663">
        <ele>92</ele>
        <time>2012-08-10T15:01:30.000Z</time>
      </trkpt>
      <trkpt lat="49.04019" lon="2.03657">
        <ele>96</ele>
        <time>2012-08-10T15:01:33.000Z</time>
      </trkpt>
      <trkpt lat="49.04015" lon="2.0365">
        <ele>97</ele>
        <time>2012-08-10T15:01:35.000Z</time>
      </trkpt>
      <trkpt lat="49.0401" lon="2.03644">
        <ele>98</ele>
        <time>2012-08-10T15:01:37.000Z</time>
      </trkpt>
      <trkpt lat="49.04005" lon="2.03638">
        <ele>100</ele>
        <time>2012-08-10T15:01:39.000Z</time>
      </trkpt>
      <trkpt lat="49.04" lon="2.03631">
        <ele>102</ele>
        <time>2012-08-10T15:01:41.000Z</time>
      </trkpt>
      <trkpt lat="49.03994" lon="2.03622">
        <ele>103</ele>
        <time>2012-08-10T15:01:43.000Z</time>
      </trkpt>
      <trkpt lat="49.0399" lon="2.03616">
        <ele>103</ele>
        <time>2012-08-10T15:01:45.000Z</time>
      </trkpt>
      <trkpt lat="49.03984" lon="2.03611">
        <ele>104</ele>
        <time>2012-08-10T15:01:47.000Z</time>
      </trkpt>
      <trkpt lat="49.03977" lon="2.03603">
        <ele>104</ele>
        <time>2012-08-10T15:01:49.000Z</time>
      </trkpt>
      <trkpt lat="49.03971" lon="2.03595">
        <ele>102</ele>
        <time>2012-08-10T15:01:51.000Z</time>
      </trkpt>
      <trkpt lat="49.03965" lon="2.03588">
        <ele>102</ele>
        <time>2012-08-10T15:01:53.000Z</time>
      </trkpt>
      <trkpt lat="49.03961" lon="2.03584">
        <ele>102</ele>
        <time>2012-08-10T15:01:54.000Z</time>
      </trkpt>
      <trkpt lat="49.03954" lon="2.03578">
        <ele>103</ele>
        <time>2012-08-10T15:01:56.000Z</time>
      </trkpt>
      <trkpt lat="49.03948" lon="2.03572">
        <ele>103</ele>
        <time>2012-08-10T15:01:58.000Z</time>
      </trkpt>
      <trkpt lat="49.03943" lon="2.03568">
        <ele>103</ele>
        <time>2012-08-10T15:01:59.000Z</time>
      </trkpt>
      <trkpt lat="49.03939" lon="2.03565">
        <ele>103</ele>
        <time>2012-08-10T15:02:00.000Z</time>
      </trkpt>
      <trkpt lat="49.03934" lon="2.03559">
        <ele>103</ele>
        <time>2012-08-10T15:02:01.000Z</time>
      </trkpt>
      <trkpt lat="49.0393" lon="2.03555">
        <ele>103</ele>
        <time>2012-08-10T15:02:02.000Z</time>
      </trkpt>
      <trkpt lat="49.03925" lon="2.03551">
        <ele>103</ele>
        <time>2012-08-10T15:02:03.000Z</time>
      </trkpt>
      <trkpt lat="49.03916" lon="2.03545">
        <ele>103</ele>
        <time>2012-08-10T15:02:05.000Z</time>
      </trkpt>
      <trkpt lat="49.03911" lon="2.03543">
        <ele>104</ele>
        <time>2012-08-10T15:02:06.000Z</time>
      </trkpt>
      <trkpt lat="49.03906" lon="2.03538">
        <ele>103</ele>
        <time>2012-08-10T15:02:07.000Z</time>
      </trkpt>
      <trkpt lat="49.03902" lon="2.03533">
        <ele>103</ele>
        <time>2012-08-10T15:02:08.000Z</time>
      </trkpt>
      <trkpt lat="49.03898" lon="2.03528">
        <ele>105</ele>
        <time>2012-08-10T15:02:09.000Z</time>
      </trkpt>
      <trkpt lat="49.0389" lon="2.0352">
        <ele>104</ele>
        <time>2012-08-10T15:02:11.000Z</time>
      </trkpt>
      <trkpt lat="49.03885" lon="2.03515">
        <ele>104</ele>
        <time>2012-08-10T15:02:12.000Z</time>
      </trkpt>
      <trkpt lat="49.0388" lon="2.03511">
        <ele>104</ele>
        <time>2012-08-10T15:02:13.000Z</time>
      </trkpt>
      <trkpt lat="49.03876" lon="2.03508">
        <ele>104</ele>
        <time>2012-08-10T15:02:14.000Z</time>
      </trkpt>
      <trkpt lat="49.03872" lon="2.03502">
        <ele>103</ele>
        <time>2012-08-10T15:02:15.000Z</time>
      </trkpt>
      <trkpt lat="49.03868" lon="2.03499">
        <ele>103</ele>
        <time>2012-08-10T15:02:16.000Z</time>
      </trkpt>
      <trkpt lat="49.03864" lon="2.03494">
        <ele>102</ele>
        <time>2012-08-10T15:02:17.000Z</time>
      </trkpt>
      <trkpt lat="49.03856" lon="2.03486">
        <ele>101</ele>
        <time>2012-08-10T15:02:19.000Z</time>
      </trkpt>
      <trkpt lat="49.03851" lon="2.03484">
        <ele>102</ele>
        <time>2012-08-10T15:02:20.000Z</time>
      </trkpt>
      <trkpt lat="49.03847" lon="2.0348">
        <ele>102</ele>
        <time>2012-08-10T15:02:21.000Z</time>
      </trkpt>
      <trkpt lat="49.03842" lon="2.03476">
        <ele>102</ele>
        <time>2012-08-10T15:02:22.000Z</time>
      </trkpt>
      <trkpt lat="49.03838" lon="2.03472">
        <ele>103</ele>
        <time>2012-08-10T15:02:23.000Z</time>
      </trkpt>
      <trkpt lat="49.03833" lon="2.03468">
        <ele>102</ele>
        <time>2012-08-10T15:02:24.000Z</time>
      </trkpt>
      <trkpt lat="49.03828" lon="2.03464">
        <ele>103</ele>
        <time>2012-08-10T15:02:25.000Z</time>
      </trkpt>
      <trkpt lat="49.03824" lon="2.0346">
        <ele>103</ele>
        <time>2012-08-10T15:02:26.000Z</time>
      </trkpt>
      <trkpt lat="49.03819" lon="2.03457">
        <ele>103</ele>
        <time>2012-08-10T15:02:27.000Z</time>
      </trkpt>
      <trkpt lat="49.03815" lon="2.03454">
        <ele>102</ele>
        <time>2012-08-10T15:02:28.000Z</time>
      </trkpt>
      <trkpt lat="49.03805" lon="2.03446">
        <ele>102</ele>
        <time>2012-08-10T15:02:30.000Z</time>
      </trkpt>
      <trkpt lat="49.03801" lon="2.03442">
        <ele>103</ele>
        <time>2012-08-10T15:02:31.000Z</time>
      </trkpt>
      <trkpt lat="49.03797" lon="2.03438">
        <ele>102</ele>
        <time>2012-08-10T15:02:32.000Z</time>
      </trkpt>
      <trkpt lat="49.03789" lon="2.03433">
        <ele>102</ele>
        <time>2012-08-10T15:02:34.000Z</time>
      </trkpt>
      <trkpt lat="49.03784" lon="2.03428">
        <ele>101</ele>
        <time>2012-08-10T15:02:35.000Z</time>
      </trkpt>
      <trkpt lat="49.0378" lon="2.03423">
        <ele>100</ele>
        <time>2012-08-10T15:02:36.000Z</time>
      </trkpt>
      <trkpt lat="49.03773" lon="2.03416">
        <ele>100</ele>
        <time>2012-08-10T15:02:38.000Z</time>
      </trkpt>
      <trkpt lat="49.0377" lon="2.03411">
        <ele>100</ele>
        <time>2012-08-10T15:02:39.000Z</time>
      </trkpt>
      <trkpt lat="49.03762" lon="2.034">
        <ele>99</ele>
        <time>2012-08-10T15:02:41.000Z</time>
      </trkpt>
      <trkpt lat="49.03759" lon="2.03396">
        <ele>99</ele>
        <time>2012-08-10T15:02:42.000Z</time>
      </trkpt>
      <trkpt lat="49.03752" lon="2.03385">
        <ele>99</ele>
        <time>2012-08-10T15:02:44.000Z</time>
      </trkpt>
      <trkpt lat="49.03748" lon="2.03379">
        <ele>99</ele>
        <time>2012-08-10T15:02:45.000Z</time>
      </trkpt>
      <trkpt lat="49.03745" lon="2.03373">
        <ele>98</ele>
        <time>2012-08-10T15:02:46.000Z</time>
      </trkpt>
      <trkpt lat="49.03742" lon="2.03366">
        <ele>97</ele>
        <time>2012-08-10T15:02:47.000Z</time>
      </trkpt>
      <trkpt lat="49.03738" lon="2.03359">
        <ele>97</ele>
        <time>2012-08-10T15:02:48.000Z</time>
      </trkpt>
      <trkpt lat="49.03734" lon="2.03348">
        <ele>97</ele>
        <time>2012-08-10T15:02:50.000Z</time>
      </trkpt>
      <trkpt lat="49.03731" lon="2.03341">
        <ele>96</ele>
        <time>2012-08-10T15:02:51.000Z</time>
      </trkpt>
      <trkpt lat="49.03726" lon="2.03328">
        <ele>97</ele>
        <time>2012-08-10T15:02:53.000Z</time>
      </trkpt>
      <trkpt lat="49.03723" lon="2.03314">
        <ele>97</ele>
        <time>2012-08-10T15:02:55.000Z</time>
      </trkpt>
      <trkpt lat="49.0372" lon="2.03307">
        <ele>96</ele>
        <time>2012-08-10T15:02:56.000Z</time>
      </trkpt>
      <trkpt lat="49.03716" lon="2.03295">
        <ele>95</ele>
        <time>2012-08-10T15:02:57.000Z</time>
      </trkpt>
      <trkpt lat="49.03714" lon="2.03287">
        <ele>95</ele>
        <time>2012-08-10T15:02:58.000Z</time>
      </trkpt>
      <trkpt lat="49.03713" lon="2.0328">
        <ele>94</ele>
        <time>2012-08-10T15:02:59.000Z</time>
      </trkpt>
      <trkpt lat="49.0371" lon="2.03266">
        <ele>94</ele>
        <time>2012-08-10T15:03:01.000Z</time>
      </trkpt>
      <trkpt lat="49.03708" lon="2.03258">
        <ele>93</ele>
        <time>2012-08-10T15:03:02.000Z</time>
      </trkpt>
      <trkpt lat="49.03705" lon="2.0325">
        <ele>93</ele>
        <time>2012-08-10T15:03:03.000Z</time>
      </trkpt>
      <trkpt lat="49.03704" lon="2.03243">
        <ele>93</ele>
        <time>2012-08-10T15:03:04.000Z</time>
      </trkpt>
      <trkpt lat="49.03703" lon="2.03236">
        <ele>93</ele>
        <time>2012-08-10T15:03:05.000Z</time>
      </trkpt>
      <trkpt lat="49.03701" lon="2.03222">
        <ele>93</ele>
        <time>2012-08-10T15:03:07.000Z</time>
      </trkpt>
      <trkpt lat="49.03701" lon="2.03215">
        <ele>92</ele>
        <time>2012-08-10T15:03:08.000Z</time>
      </trkpt>
      <trkpt lat="49.037" lon="2.03208">
        <ele>93</ele>
        <time>2012-08-10T15:03:09.000Z</time>
      </trkpt>
      <trkpt lat="49.037" lon="2.03194">
        <ele>92</ele>
        <time>2012-08-10T15:03:11.000Z</time>
      </trkpt>
      <trkpt lat="49.03698" lon="2.03186">
        <ele>92</ele>
        <time>2012-08-10T15:03:12.000Z</time>
      </trkpt>
      <trkpt lat="49.03698" lon="2.03178">
        <ele>92</ele>
        <time>2012-08-10T15:03:13.000Z</time>
      </trkpt>
      <trkpt lat="49.03696" lon="2.0317">
        <ele>92</ele>
        <time>2012-08-10T15:03:14.000Z</time>
      </trkpt>
      <trkpt lat="49.03693" lon="2.03161">
        <ele>92</ele>
        <time>2012-08-10T15:03:15.000Z</time>
      </trkpt>
      <trkpt lat="49.03693" lon="2.03154">
        <ele>92</ele>
        <time>2012-08-10T15:03:16.000Z</time>
      </trkpt>
      <trkpt lat="49.03693" lon="2.03141">
        <ele>94</ele>
        <time>2012-08-10T15:03:18.000Z</time>
      </trkpt>
      <trkpt lat="49.03692" lon="2.0313">
        <ele>94</ele>
        <time>2012-08-10T15:03:20.000Z</time>
      </trkpt>
      <trkpt lat="49.03688" lon="2.03113">
        <ele>93</ele>
        <time>2012-08-10T15:03:22.000Z</time>
      </trkpt>
      <trkpt lat="49.03686" lon="2.03105">
        <ele>93</ele>
        <time>2012-08-10T15:03:23.000Z</time>
      </trkpt>
      <trkpt lat="49.03684" lon="2.03092">
        <ele>93</ele>
        <time>2012-08-10T15:03:25.000Z</time>
      </trkpt>
      <trkpt lat="49.03681" lon="2.03084">
        <ele>94</ele>
        <time>2012-08-10T15:03:26.000Z</time>
      </trkpt>
      <trkpt lat="49.03681" lon="2.03074">
        <ele>94</ele>
        <time>2012-08-10T15:03:28.000Z</time>
      </trkpt>
      <trkpt lat="49.03685" lon="2.03066">
        <ele>94</ele>
        <time>2012-08-10T15:03:31.000Z</time>
      </trkpt>
      <trkpt lat="49.0369" lon="2.03058">
        <ele>97</ele>
        <time>2012-08-10T15:03:33.000Z</time>
      </trkpt>
      <trkpt lat="49.03694" lon="2.03049">
        <ele>98</ele>
        <time>2012-08-10T15:03:36.000Z</time>
      </trkpt>
      <trkpt lat="49.03696" lon="2.0304">
        <ele>99</ele>
        <time>2012-08-10T15:03:39.000Z</time>
      </trkpt>
      <trkpt lat="49.03698" lon="2.03032">
        <ele>99</ele>
        <time>2012-08-10T15:03:42.000Z</time>
      </trkpt>
      <trkpt lat="49.037" lon="2.03026">
        <ele>101</ele>
        <time>2012-08-10T15:03:44.000Z</time>
      </trkpt>
      <trkpt lat="49.03702" lon="2.03018">
        <ele>102</ele>
        <time>2012-08-10T15:03:46.000Z</time>
      </trkpt>
      <trkpt lat="49.03701" lon="2.03012">
        <ele>102</ele>
        <time>2012-08-10T15:03:49.000Z</time>
      </trkpt>
      <trkpt lat="49.03704" lon="2.03003">
        <ele>102</ele>
        <time>2012-08-10T15:03:53.000Z</time>
      </trkpt>
      <trkpt lat="49.03707" lon="2.02996">
        <ele>103</ele>
        <time>2012-08-10T15:03:56.000Z</time>
      </trkpt>
      <trkpt lat="49.03709" lon="2.0299">
        <ele>103</ele>
        <time>2012-08-10T15:03:59.000Z</time>
      </trkpt>
      <trkpt lat="49.03716" lon="2.02984">
        <ele>102</ele>
        <time>2012-08-10T15:04:01.000Z</time>
      </trkpt>
      <trkpt lat="49.03718" lon="2.02975">
        <ele>102</ele>
        <time>2012-08-10T15:04:04.000Z</time>
      </trkpt>
      <trkpt lat="49.03716" lon="2.02968">
        <ele>103</ele>
        <time>2012-08-10T15:04:06.000Z</time>
      </trkpt>
      <trkpt lat="49.03718" lon="2.0296">
        <ele>105</ele>
        <time>2012-08-10T15:04:09.000Z</time>
      </trkpt>
      <trkpt lat="49.03717" lon="2.02949">
        <ele>104</ele>
        <time>2012-08-10T15:04:11.000Z</time>
      </trkpt>
      <trkpt lat="49.03717" lon="2.0294">
        <ele>105</ele>
        <time>2012-08-10T15:04:13.000Z</time>
      </trkpt>
      <trkpt lat="49.0372" lon="2.02933">
        <ele>104</ele>
        <time>2012-08-10T15:04:15.000Z</time>
      </trkpt>
      <trkpt lat="49.03721" lon="2.02926">
        <ele>103</ele>
        <time>2012-08-10T15:04:17.000Z</time>
      </trkpt>
      <trkpt lat="49.03721" lon="2.02918">
        <ele>104</ele>
        <time>2012-08-10T15:04:20.000Z</time>
      </trkpt>
      <trkpt lat="49.0372" lon="2.02908">
        <ele>105</ele>
        <time>2012-08-10T15:04:23.000Z</time>
      </trkpt>
      <trkpt lat="49.0372" lon="2.029">
        <ele>106</ele>
        <time>2012-08-10T15:04:25.000Z</time>
      </trkpt>
      <trkpt lat="49.03722" lon="2.02892">
        <ele>106</ele>
        <time>2012-08-10T15:04:27.000Z</time>
      </trkpt>
      <trkpt lat="49.03723" lon="2.02883">
        <ele>106</ele>
        <time>2012-08-10T15:04:29.000Z</time>
      </trkpt>
      <trkpt lat="49.03725" lon="2.02874">
        <ele>104</ele>
        <time>2012-08-10T15:04:31.000Z</time>
      </trkpt>
      <trkpt lat="49.03725" lon="2.02864">
        <ele>104</ele>
        <time>2012-08-10T15:04:33.000Z</time>
      </trkpt>
      <trkpt lat="49.03724" lon="2.02855">
        <ele>104</ele>
        <time>2012-08-10T15:04:35.000Z</time>
      </trkpt>
      <trkpt lat="49.03724" lon="2.02846">
        <ele>104</ele>
        <time>2012-08-10T15:04:37.000Z</time>
      </trkpt>
      <trkpt lat="49.03723" lon="2.02838">
        <ele>105</ele>
        <time>2012-08-10T15:04:39.000Z</time>
      </trkpt>
      <trkpt lat="49.03724" lon="2.02828">
        <ele>106</ele>
        <time>2012-08-10T15:04:41.000Z</time>
      </trkpt>
      <trkpt lat="49.03725" lon="2.0282">
        <ele>106</ele>
        <time>2012-08-10T15:04:43.000Z</time>
      </trkpt>
      <trkpt lat="49.03726" lon="2.02809">
        <ele>108</ele>
        <time>2012-08-10T15:04:45.000Z</time>
      </trkpt>
      <trkpt lat="49.03727" lon="2.02799">
        <ele>109</ele>
        <time>2012-08-10T15:04:47.000Z</time>
      </trkpt>
      <trkpt lat="49.03727" lon="2.02788">
        <ele>110</ele>
        <time>2012-08-10T15:04:49.000Z</time>
      </trkpt>
      <trkpt lat="49.03727" lon="2.02779">
        <ele>110</ele>
        <time>2012-08-10T15:04:51.000Z</time>
      </trkpt>
      <trkpt lat="49.03728" lon="2.02771">
        <ele>111</ele>
        <time>2012-08-10T15:04:53.000Z</time>
      </trkpt>
      <trkpt lat="49.03729" lon="2.02762">
        <ele>112</ele>
        <time>2012-08-10T15:04:55.000Z</time>
      </trkpt>
      <trkpt lat="49.0373" lon="2.02753">
        <ele>112</ele>
        <time>2012-08-10T15:04:57.000Z</time>
      </trkpt>
      <trkpt lat="49.03734" lon="2.02745">
        <ele>111</ele>
        <time>2012-08-10T15:04:59.000Z</time>
      </trkpt>
      <trkpt lat="49.03736" lon="2.02736">
        <ele>110</ele>
        <time>2012-08-10T15:05:01.000Z</time>
      </trkpt>
      <trkpt lat="49.03738" lon="2.02729">
        <ele>111</ele>
        <time>2012-08-10T15:05:03.000Z</time>
      </trkpt>
      <trkpt lat="49.03743" lon="2.02722">
        <ele>111</ele>
        <time>2012-08-10T15:05:05.000Z</time>
      </trkpt>
      <trkpt lat="49.03746" lon="2.02715">
        <ele>111</ele>
        <time>2012-08-10T15:05:07.000Z</time>
      </trkpt>
      <trkpt lat="49.03752" lon="2.02706">
        <ele>111</ele>
        <time>2012-08-10T15:05:09.000Z</time>
      </trkpt>
      <trkpt lat="49.03757" lon="2.02701">
        <ele>111</ele>
        <time>2012-08-10T15:05:11.000Z</time>
      </trkpt>
      <trkpt lat="49.03763" lon="2.02695">
        <ele>111</ele>
        <time>2012-08-10T15:05:13.000Z</time>
      </trkpt>
      <trkpt lat="49.0377" lon="2.02692">
        <ele>113</ele>
        <time>2012-08-10T15:05:15.000Z</time>
      </trkpt>
      <trkpt lat="49.03775" lon="2.02689">
        <ele>114</ele>
        <time>2012-08-10T15:05:17.000Z</time>
      </trkpt>
      <trkpt lat="49.03781" lon="2.02687">
        <ele>116</ele>
        <time>2012-08-10T15:05:19.000Z</time>
      </trkpt>
      <trkpt lat="49.03787" lon="2.02685">
        <ele>117</ele>
        <time>2012-08-10T15:05:21.000Z</time>
      </trkpt>
      <trkpt lat="49.03792" lon="2.02682">
        <ele>117</ele>
        <time>2012-08-10T15:05:23.000Z</time>
      </trkpt>
      <trkpt lat="49.03798" lon="2.02678">
        <ele>117</ele>
        <time>2012-08-10T15:05:25.000Z</time>
      </trkpt>
      <trkpt lat="49.03804" lon="2.02675">
        <ele>117</ele>
        <time>2012-08-10T15:05:27.000Z</time>
      </trkpt>
      <trkpt lat="49.03809" lon="2.02671">
        <ele>116</ele>
        <time>2012-08-10T15:05:29.000Z</time>
      </trkpt>
      <trkpt lat="49.03815" lon="2.02669">
        <ele>117</ele>
        <time>2012-08-10T15:05:31.000Z</time>
      </trkpt>
      <trkpt lat="49.0382" lon="2.02662">
        <ele>118</ele>
        <time>2012-08-10T15:05:33.000Z</time>
      </trkpt>
      <trkpt lat="49.03826" lon="2.02656">
        <ele>118</ele>
        <time>2012-08-10T15:05:35.000Z</time>
      </trkpt>
      <trkpt lat="49.03833" lon="2.0265">
        <ele>118</ele>
        <time>2012-08-10T15:05:37.000Z</time>
      </trkpt>
      <trkpt lat="49.03839" lon="2.02647">
        <ele>119</ele>
        <time>2012-08-10T15:05:39.000Z</time>
      </trkpt>
      <trkpt lat="49.03846" lon="2.02642">
        <ele>119</ele>
        <time>2012-08-10T15:05:41.000Z</time>
      </trkpt>
      <trkpt lat="49.03852" lon="2.0264">
        <ele>118</ele>
        <time>2012-08-10T15:05:43.000Z</time>
      </trkpt>
      <trkpt lat="49.03856" lon="2.02636">
        <ele>118</ele>
        <time>2012-08-10T15:05:45.000Z</time>
      </trkpt>
      <trkpt lat="49.03862" lon="2.02633">
        <ele>119</ele>
        <time>2012-08-10T15:05:47.000Z</time>
      </trkpt>
      <trkpt lat="49.03867" lon="2.02628">
        <ele>120</ele>
        <time>2012-08-10T15:05:49.000Z</time>
      </trkpt>
      <trkpt lat="49.03874" lon="2.02625">
        <ele>120</ele>
        <time>2012-08-10T15:05:51.000Z</time>
      </trkpt>
      <trkpt lat="49.03882" lon="2.02621">
        <ele>119</ele>
        <time>2012-08-10T15:05:53.000Z</time>
      </trkpt>
      <trkpt lat="49.03888" lon="2.02615">
        <ele>119</ele>
        <time>2012-08-10T15:05:55.000Z</time>
      </trkpt>
      <trkpt lat="49.03894" lon="2.02612">
        <ele>120</ele>
        <time>2012-08-10T15:05:57.000Z</time>
      </trkpt>
      <trkpt lat="49.03901" lon="2.02611">
        <ele>120</ele>
        <time>2012-08-10T15:05:59.000Z</time>
      </trkpt>
      <trkpt lat="49.03907" lon="2.02609">
        <ele>117</ele>
        <time>2012-08-10T15:06:01.000Z</time>
      </trkpt>
      <trkpt lat="49.03913" lon="2.0261">
        <ele>117</ele>
        <time>2012-08-10T15:06:03.000Z</time>
      </trkpt>
      <trkpt lat="49.03919" lon="2.0261">
        <ele>117</ele>
        <time>2012-08-10T15:06:05.000Z</time>
      </trkpt>
      <trkpt lat="49.03924" lon="2.0261">
        <ele>117</ele>
        <time>2012-08-10T15:06:07.000Z</time>
      </trkpt>
      <trkpt lat="49.03934" lon="2.02609">
        <ele>117</ele>
        <time>2012-08-10T15:06:11.000Z</time>
      </trkpt>
      <trkpt lat="49.03938" lon="2.02609">
        <ele>117</ele>
        <time>2012-08-10T15:06:13.000Z</time>
      </trkpt>
      <trkpt lat="49.03944" lon="2.02609">
        <ele>118</ele>
        <time>2012-08-10T15:06:15.000Z</time>
      </trkpt>
      <trkpt lat="49.0395" lon="2.0261">
        <ele>119</ele>
        <time>2012-08-10T15:06:17.000Z</time>
      </trkpt>
      <trkpt lat="49.03959" lon="2.02609">
        <ele>119</ele>
        <time>2012-08-10T15:06:20.000Z</time>
      </trkpt>
      <trkpt lat="49.03966" lon="2.02607">
        <ele>120</ele>
        <time>2012-08-10T15:06:22.000Z</time>
      </trkpt>
      <trkpt lat="49.03972" lon="2.02607">
        <ele>121</ele>
        <time>2012-08-10T15:06:24.000Z</time>
      </trkpt>
      <trkpt lat="49.03977" lon="2.02607">
        <ele>122</ele>
        <time>2012-08-10T15:06:25.000Z</time>
      </trkpt>
      <trkpt lat="49.03984" lon="2.02606">
        <ele>121</ele>
        <time>2012-08-10T15:06:26.000Z</time>
      </trkpt>
      <trkpt lat="49.03989" lon="2.02607">
        <ele>121</ele>
        <time>2012-08-10T15:06:27.000Z</time>
      </trkpt>
      <trkpt lat="49.03994" lon="2.02606">
        <ele>121</ele>
        <time>2012-08-10T15:06:28.000Z</time>
      </trkpt>
      <trkpt lat="49.04001" lon="2.02605">
        <ele>121</ele>
        <time>2012-08-10T15:06:30.000Z</time>
      </trkpt>
      <trkpt lat="49.04009" lon="2.02604">
        <ele>121</ele>
        <time>2012-08-10T15:06:32.000Z</time>
      </trkpt>
      <trkpt lat="49.04017" lon="2.02601">
        <ele>121</ele>
        <time>2012-08-10T15:06:34.000Z</time>
      </trkpt>
      <trkpt lat="49.04023" lon="2.026">
        <ele>121</ele>
        <time>2012-08-10T15:06:35.000Z</time>
      </trkpt>
      <trkpt lat="49.04028" lon="2.02594">
        <ele>121</ele>
        <time>2012-08-10T15:06:36.000Z</time>
      </trkpt>
      <trkpt lat="49.04032" lon="2.02592">
        <ele>122</ele>
        <time>2012-08-10T15:06:37.000Z</time>
      </trkpt>
      <trkpt lat="49.0404" lon="2.02586">
        <ele>122</ele>
        <time>2012-08-10T15:06:39.000Z</time>
      </trkpt>
      <trkpt lat="49.04045" lon="2.02583">
        <ele>122</ele>
        <time>2012-08-10T15:06:40.000Z</time>
      </trkpt>
      <trkpt lat="49.04053" lon="2.0258">
        <ele>122</ele>
        <time>2012-08-10T15:06:42.000Z</time>
      </trkpt>
      <trkpt lat="49.04061" lon="2.02575">
        <ele>123</ele>
        <time>2012-08-10T15:06:44.000Z</time>
      </trkpt>
      <trkpt lat="49.04069" lon="2.02571">
        <ele>124</ele>
        <time>2012-08-10T15:06:46.000Z</time>
      </trkpt>
      <trkpt lat="49.04075" lon="2.02566">
        <ele>124</ele>
        <time>2012-08-10T15:06:48.000Z</time>
      </trkpt>
      <trkpt lat="49.04081" lon="2.02559">
        <ele>125</ele>
        <time>2012-08-10T15:06:50.000Z</time>
      </trkpt>
      <trkpt lat="49.04086" lon="2.02554">
        <ele>125</ele>
        <time>2012-08-10T15:06:52.000Z</time>
      </trkpt>
      <trkpt lat="49.04092" lon="2.02549">
        <ele>125</ele>
        <time>2012-08-10T15:06:54.000Z</time>
      </trkpt>
      <trkpt lat="49.04098" lon="2.02543">
        <ele>126</ele>
        <time>2012-08-10T15:06:56.000Z</time>
      </trkpt>
      <trkpt lat="49.04103" lon="2.02537">
        <ele>126</ele>
        <time>2012-08-10T15:06:58.000Z</time>
      </trkpt>
      <trkpt lat="49.04108" lon="2.0253">
        <ele>125</ele>
        <time>2012-08-10T15:07:00.000Z</time>
      </trkpt>
      <trkpt lat="49.0411" lon="2.02521">
        <ele>127</ele>
        <time>2012-08-10T15:07:01.000Z</time>
      </trkpt>
      <trkpt lat="49.04116" lon="2.02512">
        <ele>126</ele>
        <time>2012-08-10T15:07:03.000Z</time>
      </trkpt>
      <trkpt lat="49.04121" lon="2.02504">
        <ele>127</ele>
        <time>2012-08-10T15:07:05.000Z</time>
      </trkpt>
      <trkpt lat="49.04126" lon="2.02493">
        <ele>126</ele>
        <time>2012-08-10T15:07:07.000Z</time>
      </trkpt>
      <trkpt lat="49.0413" lon="2.02484">
        <ele>126</ele>
        <time>2012-08-10T15:07:09.000Z</time>
      </trkpt>
      <trkpt lat="49.04136" lon="2.02474">
        <ele>127</ele>
        <time>2012-08-10T15:07:11.000Z</time>
      </trkpt>
      <trkpt lat="49.0414" lon="2.02464">
        <ele>128</ele>
        <time>2012-08-10T15:07:13.000Z</time>
      </trkpt>
      <trkpt lat="49.04145" lon="2.02454">
        <ele>129</ele>
        <time>2012-08-10T15:07:15.000Z</time>
      </trkpt>
      <trkpt lat="49.0415" lon="2.02445">
        <ele>128</ele>
        <time>2012-08-10T15:07:17.000Z</time>
      </trkpt>
      <trkpt lat="49.04154" lon="2.02438">
        <ele>128</ele>
        <time>2012-08-10T15:07:19.000Z</time>
      </trkpt>
      <trkpt lat="49.04157" lon="2.02431">
        <ele>129</ele>
        <time>2012-08-10T15:07:21.000Z</time>
      </trkpt>
      <trkpt lat="49.0416" lon="2.02424">
        <ele>129</ele>
        <time>2012-08-10T15:07:23.000Z</time>
      </trkpt>
      <trkpt lat="49.04162" lon="2.02416">
        <ele>130</ele>
        <time>2012-08-10T15:07:25.000Z</time>
      </trkpt>
      <trkpt lat="49.04165" lon="2.02406">
        <ele>131</ele>
        <time>2012-08-10T15:07:27.000Z</time>
      </trkpt>
      <trkpt lat="49.04169" lon="2.02398">
        <ele>131</ele>
        <time>2012-08-10T15:07:29.000Z</time>
      </trkpt>
      <trkpt lat="49.04169" lon="2.02389">
        <ele>131</ele>
        <time>2012-08-10T15:07:31.000Z</time>
      </trkpt>
      <trkpt lat="49.0417" lon="2.02377">
        <ele>132</ele>
        <time>2012-08-10T15:07:33.000Z</time>
      </trkpt>
      <trkpt lat="49.04172" lon="2.02367">
        <ele>132</ele>
        <time>2012-08-10T15:07:35.000Z</time>
      </trkpt>
      <trkpt lat="49.04172" lon="2.0236">
        <ele>133</ele>
        <time>2012-08-10T15:07:37.000Z</time>
      </trkpt>
      <trkpt lat="49.04174" lon="2.0235">
        <ele>133</ele>
        <time>2012-08-10T15:08:24.000Z</time>
      </trkpt>
      <trkpt lat="49.04173" lon="2.02343">
        <ele>132</ele>
        <time>2012-08-10T15:08:25.000Z</time>
      </trkpt>
      <trkpt lat="49.04172" lon="2.02336">
        <ele>132</ele>
        <time>2012-08-10T15:08:26.000Z</time>
      </trkpt>
      <trkpt lat="49.04169" lon="2.02329">
        <ele>133</ele>
        <time>2012-08-10T15:08:27.000Z</time>
      </trkpt>
      <trkpt lat="49.04163" lon="2.02316">
        <ele>133</ele>
        <time>2012-08-10T15:08:29.000Z</time>
      </trkpt>
      <trkpt lat="49.04158" lon="2.02306">
        <ele>132</ele>
        <time>2012-08-10T15:08:31.000Z</time>
      </trkpt>
      <trkpt lat="49.04152" lon="2.02298">
        <ele>132</ele>
        <time>2012-08-10T15:08:33.000Z</time>
      </trkpt>
      <trkpt lat="49.04146" lon="2.02292">
        <ele>132</ele>
        <time>2012-08-10T15:08:35.000Z</time>
      </trkpt>
      <trkpt lat="49.0414" lon="2.0229">
        <ele>131</ele>
        <time>2012-08-10T15:08:36.000Z</time>
      </trkpt>
      <trkpt lat="49.04134" lon="2.02287">
        <ele>131</ele>
        <time>2012-08-10T15:08:37.000Z</time>
      </trkpt>
      <trkpt lat="49.0413" lon="2.02284">
        <ele>131</ele>
        <time>2012-08-10T15:08:38.000Z</time>
      </trkpt>
      <trkpt lat="49.04122" lon="2.02278">
        <ele>131</ele>
        <time>2012-08-10T15:08:40.000Z</time>
      </trkpt>
      <trkpt lat="49.04118" lon="2.02276">
        <ele>131</ele>
        <time>2012-08-10T15:08:41.000Z</time>
      </trkpt>
      <trkpt lat="49.04113" lon="2.02273">
        <ele>132</ele>
        <time>2012-08-10T15:08:42.000Z</time>
      </trkpt>
      <trkpt lat="49.04105" lon="2.02269">
        <ele>132</ele>
        <time>2012-08-10T15:08:44.000Z</time>
      </trkpt>
      <trkpt lat="49.04101" lon="2.02265">
        <ele>132</ele>
        <time>2012-08-10T15:08:45.000Z</time>
      </trkpt>
      <trkpt lat="49.04094" lon="2.02259">
        <ele>133</ele>
        <time>2012-08-10T15:08:47.000Z</time>
      </trkpt>
      <trkpt lat="49.04089" lon="2.02257">
        <ele>133</ele>
        <time>2012-08-10T15:08:48.000Z</time>
      </trkpt>
      <trkpt lat="49.04082" lon="2.02251">
        <ele>133</ele>
        <time>2012-08-10T15:08:50.000Z</time>
      </trkpt>
      <trkpt lat="49.04076" lon="2.02247">
        <ele>134</ele>
        <time>2012-08-10T15:08:52.000Z</time>
      </trkpt>
      <trkpt lat="49.04069" lon="2.02242">
        <ele>135</ele>
        <time>2012-08-10T15:08:54.000Z</time>
      </trkpt>
      <trkpt lat="49.04063" lon="2.02237">
        <ele>135</ele>
        <time>2012-08-10T15:08:56.000Z</time>
      </trkpt>
      <trkpt lat="49.04056" lon="2.02237">
        <ele>134</ele>
        <time>2012-08-10T15:08:58.000Z</time>
      </trkpt>
      <trkpt lat="49.04052" lon="2.0224">
        <ele>134</ele>
        <time>2012-08-10T15:08:59.000Z</time>
      </trkpt>
      <trkpt lat="49.04047" lon="2.02242">
        <ele>134</ele>
        <time>2012-08-10T15:09:00.000Z</time>
      </trkpt>
      <trkpt lat="49.0404" lon="2.02248">
        <ele>134</ele>
        <time>2012-08-10T15:09:02.000Z</time>
      </trkpt>
      <trkpt lat="49.04032" lon="2.02252">
        <ele>135</ele>
        <time>2012-08-10T15:09:04.000Z</time>
      </trkpt>
      <trkpt lat="49.04028" lon="2.02255">
        <ele>136</ele>
        <time>2012-08-10T15:09:05.000Z</time>
      </trkpt>
      <trkpt lat="49.04023" lon="2.02257">
        <ele>136</ele>
        <time>2012-08-10T15:09:06.000Z</time>
      </trkpt>
      <trkpt lat="49.04018" lon="2.02258">
        <ele>136</ele>
        <time>2012-08-10T15:09:07.000Z</time>
      </trkpt>
      <trkpt lat="49.04013" lon="2.02259">
        <ele>136</ele>
        <time>2012-08-10T15:09:08.000Z</time>
      </trkpt>
      <trkpt lat="49.04008" lon="2.02259">
        <ele>136</ele>
        <time>2012-08-10T15:09:09.000Z</time>
      </trkpt>
      <trkpt lat="49.03998" lon="2.02258">
        <ele>136</ele>
        <time>2012-08-10T15:09:11.000Z</time>
      </trkpt>
      <trkpt lat="49.03989" lon="2.02255">
        <ele>137</ele>
        <time>2012-08-10T15:09:13.000Z</time>
      </trkpt>
      <trkpt lat="49.03981" lon="2.0225">
        <ele>136</ele>
        <time>2012-08-10T15:09:15.000Z</time>
      </trkpt>
      <trkpt lat="49.03972" lon="2.02245">
        <ele>136</ele>
        <time>2012-08-10T15:09:17.000Z</time>
      </trkpt>
      <trkpt lat="49.03968" lon="2.02242">
        <ele>136</ele>
        <time>2012-08-10T15:09:18.000Z</time>
      </trkpt>
      <trkpt lat="49.03964" lon="2.02238">
        <ele>136</ele>
        <time>2012-08-10T15:09:19.000Z</time>
      </trkpt>
      <trkpt lat="49.03955" lon="2.0223">
        <ele>137</ele>
        <time>2012-08-10T15:09:21.000Z</time>
      </trkpt>
      <trkpt lat="49.03948" lon="2.02221">
        <ele>136</ele>
        <time>2012-08-10T15:09:23.000Z</time>
      </trkpt>
      <trkpt lat="49.03944" lon="2.02215">
        <ele>137</ele>
        <time>2012-08-10T15:09:24.000Z</time>
      </trkpt>
      <trkpt lat="49.03941" lon="2.0221">
        <ele>137</ele>
        <time>2012-08-10T15:09:25.000Z</time>
      </trkpt>
      <trkpt lat="49.03935" lon="2.02198">
        <ele>137</ele>
        <time>2012-08-10T15:09:27.000Z</time>
      </trkpt>
      <trkpt lat="49.03933" lon="2.02192">
        <ele>137</ele>
        <time>2012-08-10T15:09:28.000Z</time>
      </trkpt>
      <trkpt lat="49.0393" lon="2.02186">
        <ele>138</ele>
        <time>2012-08-10T15:09:29.000Z</time>
      </trkpt>
      <trkpt lat="49.03927" lon="2.02179">
        <ele>138</ele>
        <time>2012-08-10T15:09:30.000Z</time>
      </trkpt>
      <trkpt lat="49.03925" lon="2.02172">
        <ele>138</ele>
        <time>2012-08-10T15:09:31.000Z</time>
      </trkpt>
      <trkpt lat="49.03924" lon="2.02165">
        <ele>138</ele>
        <time>2012-08-10T15:09:32.000Z</time>
      </trkpt>
      <trkpt lat="49.03921" lon="2.02151">
        <ele>138</ele>
        <time>2012-08-10T15:09:34.000Z</time>
      </trkpt>
      <trkpt lat="49.0392" lon="2.02144">
        <ele>138</ele>
        <time>2012-08-10T15:09:35.000Z</time>
      </trkpt>
      <trkpt lat="49.0392" lon="2.02137">
        <ele>138</ele>
        <time>2012-08-10T15:09:36.000Z</time>
      </trkpt>
      <trkpt lat="49.03918" lon="2.0213">
        <ele>138</ele>
        <time>2012-08-10T15:09:37.000Z</time>
      </trkpt>
      <trkpt lat="49.03918" lon="2.02122">
        <ele>138</ele>
        <time>2012-08-10T15:09:38.000Z</time>
      </trkpt>
      <trkpt lat="49.03918" lon="2.02114">
        <ele>138</ele>
        <time>2012-08-10T15:09:39.000Z</time>
      </trkpt>
      <trkpt lat="49.03919" lon="2.02107">
        <ele>138</ele>
        <time>2012-08-10T15:09:40.000Z</time>
      </trkpt>
      <trkpt lat="49.0392" lon="2.02099">
        <ele>138</ele>
        <time>2012-08-10T15:09:41.000Z</time>
      </trkpt>
      <trkpt lat="49.0392" lon="2.02092">
        <ele>138</ele>
        <time>2012-08-10T15:09:42.000Z</time>
      </trkpt>
      <trkpt lat="49.03921" lon="2.02085">
        <ele>138</ele>
        <time>2012-08-10T15:09:43.000Z</time>
      </trkpt>
      <trkpt lat="49.03923" lon="2.02078">
        <ele>138</ele>
        <time>2012-08-10T15:09:44.000Z</time>
      </trkpt>
      <trkpt lat="49.03924" lon="2.02071">
        <ele>138</ele>
        <time>2012-08-10T15:09:45.000Z</time>
      </trkpt>
      <trkpt lat="49.03926" lon="2.02063">
        <ele>138</ele>
        <time>2012-08-10T15:09:46.000Z</time>
      </trkpt>
      <trkpt lat="49.03927" lon="2.02056">
        <ele>138</ele>
        <time>2012-08-10T15:09:47.000Z</time>
      </trkpt>
      <trkpt lat="49.03929" lon="2.02042">
        <ele>138</ele>
        <time>2012-08-10T15:09:49.000Z</time>
      </trkpt>
      <trkpt lat="49.0393" lon="2.02034">
        <ele>139</ele>
        <time>2012-08-10T15:09:50.000Z</time>
      </trkpt>
      <trkpt lat="49.03932" lon="2.02028">
        <ele>139</ele>
        <time>2012-08-10T15:09:51.000Z</time>
      </trkpt>
      <trkpt lat="49.03934" lon="2.02021">
        <ele>139</ele>
        <time>2012-08-10T15:09:52.000Z</time>
      </trkpt>
      <trkpt lat="49.03936" lon="2.02014">
        <ele>139</ele>
        <time>2012-08-10T15:09:53.000Z</time>
      </trkpt>
      <trkpt lat="49.03937" lon="2.02006">
        <ele>139</ele>
        <time>2012-08-10T15:09:54.000Z</time>
      </trkpt>
      <trkpt lat="49.03939" lon="2.01999">
        <ele>139</ele>
        <time>2012-08-10T15:09:55.000Z</time>
      </trkpt>
      <trkpt lat="49.03941" lon="2.01991">
        <ele>139</ele>
        <time>2012-08-10T15:09:56.000Z</time>
      </trkpt>
      <trkpt lat="49.03943" lon="2.01985">
        <ele>139</ele>
        <time>2012-08-10T15:09:57.000Z</time>
      </trkpt>
      <trkpt lat="49.03945" lon="2.01977">
        <ele>139</ele>
        <time>2012-08-10T15:09:58.000Z</time>
      </trkpt>
      <trkpt lat="49.03947" lon="2.0197">
        <ele>139</ele>
        <time>2012-08-10T15:09:59.000Z</time>
      </trkpt>
      <trkpt lat="49.0395" lon="2.01964">
        <ele>139</ele>
        <time>2012-08-10T15:10:00.000Z</time>
      </trkpt>
      <trkpt lat="49.03952" lon="2.01957">
        <ele>139</ele>
        <time>2012-08-10T15:10:01.000Z</time>
      </trkpt>
      <trkpt lat="49.03956" lon="2.01951">
        <ele>139</ele>
        <time>2012-08-10T15:10:02.000Z</time>
      </trkpt>
      <trkpt lat="49.03958" lon="2.01944">
        <ele>139</ele>
        <time>2012-08-10T15:10:03.000Z</time>
      </trkpt>
      <trkpt lat="49.03961" lon="2.01936">
        <ele>139</ele>
        <time>2012-08-10T15:10:04.000Z</time>
      </trkpt>
      <trkpt lat="49.03964" lon="2.0193">
        <ele>139</ele>
        <time>2012-08-10T15:10:05.000Z</time>
      </trkpt>
      <trkpt lat="49.03967" lon="2.01924">
        <ele>139</ele>
        <time>2012-08-10T15:10:06.000Z</time>
      </trkpt>
      <trkpt lat="49.0397" lon="2.01918">
        <ele>139</ele>
        <time>2012-08-10T15:10:07.000Z</time>
      </trkpt>
      <trkpt lat="49.03973" lon="2.01912">
        <ele>139</ele>
        <time>2012-08-10T15:10:08.000Z</time>
      </trkpt>
      <trkpt lat="49.03977" lon="2.01905">
        <ele>138</ele>
        <time>2012-08-10T15:10:09.000Z</time>
      </trkpt>
      <trkpt lat="49.03983" lon="2.01893">
        <ele>138</ele>
        <time>2012-08-10T15:10:11.000Z</time>
      </trkpt>
      <trkpt lat="49.03986" lon="2.01886">
        <ele>138</ele>
        <time>2012-08-10T15:10:12.000Z</time>
      </trkpt>
      <trkpt lat="49.03988" lon="2.0188">
        <ele>138</ele>
        <time>2012-08-10T15:10:13.000Z</time>
      </trkpt>
      <trkpt lat="49.03993" lon="2.01868">
        <ele>137</ele>
        <time>2012-08-10T15:10:15.000Z</time>
      </trkpt>
      <trkpt lat="49.03998" lon="2.01856">
        <ele>137</ele>
        <time>2012-08-10T15:10:17.000Z</time>
      </trkpt>
      <trkpt lat="49.04001" lon="2.0185">
        <ele>137</ele>
        <time>2012-08-10T15:10:18.000Z</time>
      </trkpt>
      <trkpt lat="49.04003" lon="2.01843">
        <ele>137</ele>
        <time>2012-08-10T15:10:19.000Z</time>
      </trkpt>
      <trkpt lat="49.04005" lon="2.01836">
        <ele>137</ele>
        <time>2012-08-10T15:10:20.000Z</time>
      </trkpt>
      <trkpt lat="49.04007" lon="2.0183">
        <ele>137</ele>
        <time>2012-08-10T15:10:21.000Z</time>
      </trkpt>
      <trkpt lat="49.04008" lon="2.01823">
        <ele>137</ele>
        <time>2012-08-10T15:10:22.000Z</time>
      </trkpt>
      <trkpt lat="49.04009" lon="2.01816">
        <ele>137</ele>
        <time>2012-08-10T15:10:23.000Z</time>
      </trkpt>
      <trkpt lat="49.0401" lon="2.01801">
        <ele>138</ele>
        <time>2012-08-10T15:10:25.000Z</time>
      </trkpt>
      <trkpt lat="49.04011" lon="2.01793">
        <ele>139</ele>
        <time>2012-08-10T15:10:26.000Z</time>
      </trkpt>
      <trkpt lat="49.04013" lon="2.01779">
        <ele>140</ele>
        <time>2012-08-10T15:10:28.000Z</time>
      </trkpt>
      <trkpt lat="49.04014" lon="2.01771">
        <ele>139</ele>
        <time>2012-08-10T15:10:29.000Z</time>
      </trkpt>
      <trkpt lat="49.04015" lon="2.01764">
        <ele>139</ele>
        <time>2012-08-10T15:10:30.000Z</time>
      </trkpt>
      <trkpt lat="49.04016" lon="2.01757">
        <ele>139</ele>
        <time>2012-08-10T15:10:31.000Z</time>
      </trkpt>
      <trkpt lat="49.04017" lon="2.01749">
        <ele>139</ele>
        <time>2012-08-10T15:10:32.000Z</time>
      </trkpt>
      <trkpt lat="49.04017" lon="2.01742">
        <ele>139</ele>
        <time>2012-08-10T15:10:33.000Z</time>
      </trkpt>
      <trkpt lat="49.04017" lon="2.01727">
        <ele>139</ele>
        <time>2012-08-10T15:10:35.000Z</time>
      </trkpt>
      <trkpt lat="49.04018" lon="2.0172">
        <ele>139</ele>
        <time>2012-08-10T15:10:36.000Z</time>
      </trkpt>
      <trkpt lat="49.04018" lon="2.01712">
        <ele>139</ele>
        <time>2012-08-10T15:10:37.000Z</time>
      </trkpt>
      <trkpt lat="49.04018" lon="2.01705">
        <ele>139</ele>
        <time>2012-08-10T15:10:38.000Z</time>
      </trkpt>
      <trkpt lat="49.04018" lon="2.01698">
        <ele>139</ele>
        <time>2012-08-10T15:10:39.000Z</time>
      </trkpt>
      <trkpt lat="49.04018" lon="2.0169">
        <ele>138</ele>
        <time>2012-08-10T15:10:40.000Z</time>
      </trkpt>
      <trkpt lat="49.0402" lon="2.01683">
        <ele>138</ele>
        <time>2012-08-10T15:10:41.000Z</time>
      </trkpt>
      <trkpt lat="49.04019" lon="2.01676">
        <ele>140</ele>
        <time>2012-08-10T15:10:42.000Z</time>
      </trkpt>
      <trkpt lat="49.0402" lon="2.01669">
        <ele>141</ele>
        <time>2012-08-10T15:10:43.000Z</time>
      </trkpt>
      <trkpt lat="49.04024" lon="2.01656">
        <ele>141</ele>
        <time>2012-08-10T15:10:45.000Z</time>
      </trkpt>
      <trkpt lat="49.04028" lon="2.0165">
        <ele>141</ele>
        <time>2012-08-10T15:10:46.000Z</time>
      </trkpt>
      <trkpt lat="49.04031" lon="2.01645">
        <ele>141</ele>
        <time>2012-08-10T15:10:47.000Z</time>
      </trkpt>
      <trkpt lat="49.04035" lon="2.01638">
        <ele>140</ele>
        <time>2012-08-10T15:10:48.000Z</time>
      </trkpt>
      <trkpt lat="49.04038" lon="2.01633">
        <ele>140</ele>
        <time>2012-08-10T15:10:49.000Z</time>
      </trkpt>
      <trkpt lat="49.04042" lon="2.01627">
        <ele>140</ele>
        <time>2012-08-10T15:10:50.000Z</time>
      </trkpt>
      <trkpt lat="49.04043" lon="2.0162">
        <ele>141</ele>
        <time>2012-08-10T15:10:51.000Z</time>
      </trkpt>
      <trkpt lat="49.04044" lon="2.01612">
        <ele>141</ele>
        <time>2012-08-10T15:10:52.000Z</time>
      </trkpt>
      <trkpt lat="49.04044" lon="2.01604">
        <ele>141</ele>
        <time>2012-08-10T15:10:53.000Z</time>
      </trkpt>
      <trkpt lat="49.04044" lon="2.01596">
        <ele>141</ele>
        <time>2012-08-10T15:10:54.000Z</time>
      </trkpt>
      <trkpt lat="49.04042" lon="2.01589">
        <ele>141</ele>
        <time>2012-08-10T15:10:55.000Z</time>
      </trkpt>
      <trkpt lat="49.04042" lon="2.01581">
        <ele>142</ele>
        <time>2012-08-10T15:10:56.000Z</time>
      </trkpt>
      <trkpt lat="49.04041" lon="2.01573">
        <ele>141</ele>
        <time>2012-08-10T15:10:57.000Z</time>
      </trkpt>
      <trkpt lat="49.04042" lon="2.01565">
        <ele>142</ele>
        <time>2012-08-10T15:10:58.000Z</time>
      </trkpt>
      <trkpt lat="49.04044" lon="2.01557">
        <ele>141</ele>
        <time>2012-08-10T15:10:59.000Z</time>
      </trkpt>
      <trkpt lat="49.04046" lon="2.01549">
        <ele>141</ele>
        <time>2012-08-10T15:11:00.000Z</time>
      </trkpt>
      <trkpt lat="49.0405" lon="2.01543">
        <ele>141</ele>
        <time>2012-08-10T15:11:01.000Z</time>
      </trkpt>
      <trkpt lat="49.04054" lon="2.01536">
        <ele>141</ele>
        <time>2012-08-10T15:11:02.000Z</time>
      </trkpt>
      <trkpt lat="49.04058" lon="2.0153">
        <ele>141</ele>
        <time>2012-08-10T15:11:03.000Z</time>
      </trkpt>
      <trkpt lat="49.04061" lon="2.01524">
        <ele>141</ele>
        <time>2012-08-10T15:11:04.000Z</time>
      </trkpt>
      <trkpt lat="49.04064" lon="2.01516">
        <ele>141</ele>
        <time>2012-08-10T15:11:05.000Z</time>
      </trkpt>
      <trkpt lat="49.04068" lon="2.0151">
        <ele>142</ele>
        <time>2012-08-10T15:11:06.000Z</time>
      </trkpt>
      <trkpt lat="49.04072" lon="2.01502">
        <ele>142</ele>
        <time>2012-08-10T15:11:07.000Z</time>
      </trkpt>
      <trkpt lat="49.04076" lon="2.01496">
        <ele>142</ele>
        <time>2012-08-10T15:11:08.000Z</time>
      </trkpt>
      <trkpt lat="49.0408" lon="2.0149">
        <ele>142</ele>
        <time>2012-08-10T15:11:09.000Z</time>
      </trkpt>
      <trkpt lat="49.04088" lon="2.01476">
        <ele>142</ele>
        <time>2012-08-10T15:11:11.000Z</time>
      </trkpt>
      <trkpt lat="49.04091" lon="2.01469">
        <ele>143</ele>
        <time>2012-08-10T15:11:12.000Z</time>
      </trkpt>
      <trkpt lat="49.04095" lon="2.01462">
        <ele>143</ele>
        <time>2012-08-10T15:11:13.000Z</time>
      </trkpt>
      <trkpt lat="49.04098" lon="2.01457">
        <ele>143</ele>
        <time>2012-08-10T15:11:14.000Z</time>
      </trkpt>
      <trkpt lat="49.04102" lon="2.01449">
        <ele>143</ele>
        <time>2012-08-10T15:11:15.000Z</time>
      </trkpt>
      <trkpt lat="49.04105" lon="2.01441">
        <ele>144</ele>
        <time>2012-08-10T15:11:16.000Z</time>
      </trkpt>
      <trkpt lat="49.0411" lon="2.01436">
        <ele>144</ele>
        <time>2012-08-10T15:11:17.000Z</time>
      </trkpt>
      <trkpt lat="49.04114" lon="2.01429">
        <ele>144</ele>
        <time>2012-08-10T15:11:18.000Z</time>
      </trkpt>
      <trkpt lat="49.04118" lon="2.01422">
        <ele>144</ele>
        <time>2012-08-10T15:11:19.000Z</time>
      </trkpt>
      <trkpt lat="49.04122" lon="2.01416">
        <ele>144</ele>
        <time>2012-08-10T15:11:20.000Z</time>
      </trkpt>
      <trkpt lat="49.04126" lon="2.0141">
        <ele>144</ele>
        <time>2012-08-10T15:11:21.000Z</time>
      </trkpt>
      <trkpt lat="49.0413" lon="2.01403">
        <ele>144</ele>
        <time>2012-08-10T15:11:22.000Z</time>
      </trkpt>
      <trkpt lat="49.04134" lon="2.01397">
        <ele>144</ele>
        <time>2012-08-10T15:11:23.000Z</time>
      </trkpt>
      <trkpt lat="49.04138" lon="2.01391">
        <ele>144</ele>
        <time>2012-08-10T15:11:24.000Z</time>
      </trkpt>
      <trkpt lat="49.04142" lon="2.01385">
        <ele>144</ele>
        <time>2012-08-10T15:11:25.000Z</time>
      </trkpt>
      <trkpt lat="49.04146" lon="2.01379">
        <ele>144</ele>
        <time>2012-08-10T15:11:26.000Z</time>
      </trkpt>
      <trkpt lat="49.0415" lon="2.01373">
        <ele>144</ele>
        <time>2012-08-10T15:11:27.000Z</time>
      </trkpt>
      <trkpt lat="49.04153" lon="2.01365">
        <ele>144</ele>
        <time>2012-08-10T15:11:28.000Z</time>
      </trkpt>
      <trkpt lat="49.04157" lon="2.01359">
        <ele>144</ele>
        <time>2012-08-10T15:11:29.000Z</time>
      </trkpt>
      <trkpt lat="49.04161" lon="2.01353">
        <ele>144</ele>
        <time>2012-08-10T15:11:30.000Z</time>
      </trkpt>
      <trkpt lat="49.04165" lon="2.01347">
        <ele>144</ele>
        <time>2012-08-10T15:11:31.000Z</time>
      </trkpt>
      <trkpt lat="49.04169" lon="2.01341">
        <ele>144</ele>
        <time>2012-08-10T15:11:32.000Z</time>
      </trkpt>
      <trkpt lat="49.04173" lon="2.01336">
        <ele>144</ele>
        <time>2012-08-10T15:11:33.000Z</time>
      </trkpt>
      <trkpt lat="49.04177" lon="2.0133">
        <ele>145</ele>
        <time>2012-08-10T15:11:34.000Z</time>
      </trkpt>
      <trkpt lat="49.04182" lon="2.01322">
        <ele>145</ele>
        <time>2012-08-10T15:11:35.000Z</time>
      </trkpt>
      <trkpt lat="49.04186" lon="2.01315">
        <ele>145</ele>
        <time>2012-08-10T15:11:36.000Z</time>
      </trkpt>
      <trkpt lat="49.04192" lon="2.01309">
        <ele>145</ele>
        <time>2012-08-10T15:11:37.000Z</time>
      </trkpt>
      <trkpt lat="49.04196" lon="2.01302">
        <ele>146</ele>
        <time>2012-08-10T15:11:38.000Z</time>
      </trkpt>
      <trkpt lat="49.04201" lon="2.01296">
        <ele>146</ele>
        <time>2012-08-10T15:11:39.000Z</time>
      </trkpt>
      <trkpt lat="49.04206" lon="2.01289">
        <ele>146</ele>
        <time>2012-08-10T15:11:40.000Z</time>
      </trkpt>
      <trkpt lat="49.0421" lon="2.01282">
        <ele>146</ele>
        <time>2012-08-10T15:11:41.000Z</time>
      </trkpt>
      <trkpt lat="49.04214" lon="2.01274">
        <ele>146</ele>
        <time>2012-08-10T15:11:42.000Z</time>
      </trkpt>
      <trkpt lat="49.04219" lon="2.01269">
        <ele>146</ele>
        <time>2012-08-10T15:11:43.000Z</time>
      </trkpt>
      <trkpt lat="49.04223" lon="2.01262">
        <ele>146</ele>
        <time>2012-08-10T15:11:44.000Z</time>
      </trkpt>
      <trkpt lat="49.04228" lon="2.01256">
        <ele>147</ele>
        <time>2012-08-10T15:11:45.000Z</time>
      </trkpt>
      <trkpt lat="49.04232" lon="2.01248">
        <ele>148</ele>
        <time>2012-08-10T15:11:46.000Z</time>
      </trkpt>
      <trkpt lat="49.04236" lon="2.01242">
        <ele>148</ele>
        <time>2012-08-10T15:11:47.000Z</time>
      </trkpt>
      <trkpt lat="49.0424" lon="2.01234">
        <ele>148</ele>
        <time>2012-08-10T15:11:48.000Z</time>
      </trkpt>
      <trkpt lat="49.04245" lon="2.01228">
        <ele>149</ele>
        <time>2012-08-10T15:11:49.000Z</time>
      </trkpt>
      <trkpt lat="49.04249" lon="2.01221">
        <ele>150</ele>
        <time>2012-08-10T15:11:50.000Z</time>
      </trkpt>
      <trkpt lat="49.04253" lon="2.01216">
        <ele>149</ele>
        <time>2012-08-10T15:11:51.000Z</time>
      </trkpt>
      <trkpt lat="49.04258" lon="2.0121">
        <ele>149</ele>
        <time>2012-08-10T15:11:52.000Z</time>
      </trkpt>
      <trkpt lat="49.04262" lon="2.01202">
        <ele>149</ele>
        <time>2012-08-10T15:11:53.000Z</time>
      </trkpt>
      <trkpt lat="49.04267" lon="2.01197">
        <ele>149</ele>
        <time>2012-08-10T15:11:54.000Z</time>
      </trkpt>
      <trkpt lat="49.04271" lon="2.01191">
        <ele>149</ele>
        <time>2012-08-10T15:11:55.000Z</time>
      </trkpt>
      <trkpt lat="49.04275" lon="2.01185">
        <ele>149</ele>
        <time>2012-08-10T15:11:56.000Z</time>
      </trkpt>
      <trkpt lat="49.0428" lon="2.01179">
        <ele>150</ele>
        <time>2012-08-10T15:11:57.000Z</time>
      </trkpt>
      <trkpt lat="49.04284" lon="2.01173">
        <ele>150</ele>
        <time>2012-08-10T15:11:58.000Z</time>
      </trkpt>
      <trkpt lat="49.04288" lon="2.01168">
        <ele>150</ele>
        <time>2012-08-10T15:11:59.000Z</time>
      </trkpt>
      <trkpt lat="49.04292" lon="2.01162">
        <ele>150</ele>
        <time>2012-08-10T15:12:00.000Z</time>
      </trkpt>
      <trkpt lat="49.04296" lon="2.01156">
        <ele>151</ele>
        <time>2012-08-10T15:12:01.000Z</time>
      </trkpt>
      <trkpt lat="49.04301" lon="2.0115">
        <ele>151</ele>
        <time>2012-08-10T15:12:02.000Z</time>
      </trkpt>
      <trkpt lat="49.04305" lon="2.01145">
        <ele>151</ele>
        <time>2012-08-10T15:12:03.000Z</time>
      </trkpt>
      <trkpt lat="49.04309" lon="2.01139">
        <ele>151</ele>
        <time>2012-08-10T15:12:04.000Z</time>
      </trkpt>
      <trkpt lat="49.04314" lon="2.01133">
        <ele>151</ele>
        <time>2012-08-10T15:12:05.000Z</time>
      </trkpt>
      <trkpt lat="49.04317" lon="2.01127">
        <ele>151</ele>
        <time>2012-08-10T15:12:06.000Z</time>
      </trkpt>
      <trkpt lat="49.0432" lon="2.0112">
        <ele>152</ele>
        <time>2012-08-10T15:12:07.000Z</time>
      </trkpt>
      <trkpt lat="49.04325" lon="2.01114">
        <ele>152</ele>
        <time>2012-08-10T15:12:08.000Z</time>
      </trkpt>
      <trkpt lat="49.0433" lon="2.01107">
        <ele>152</ele>
        <time>2012-08-10T15:12:09.000Z</time>
      </trkpt>
      <trkpt lat="49.04338" lon="2.01095">
        <ele>153</ele>
        <time>2012-08-10T15:12:11.000Z</time>
      </trkpt>
      <trkpt lat="49.04341" lon="2.01088">
        <ele>153</ele>
        <time>2012-08-10T15:12:12.000Z</time>
      </trkpt>
      <trkpt lat="49.04345" lon="2.01082">
        <ele>153</ele>
        <time>2012-08-10T15:12:13.000Z</time>
      </trkpt>
      <trkpt lat="49.04348" lon="2.01075">
        <ele>153</ele>
        <time>2012-08-10T15:12:14.000Z</time>
      </trkpt>
      <trkpt lat="49.04352" lon="2.0107">
        <ele>153</ele>
        <time>2012-08-10T15:12:15.000Z</time>
      </trkpt>
      <trkpt lat="49.04354" lon="2.01063">
        <ele>153</ele>
        <time>2012-08-10T15:12:16.000Z</time>
      </trkpt>
      <trkpt lat="49.04362" lon="2.01057">
        <ele>153</ele>
        <time>2012-08-10T15:12:18.000Z</time>
      </trkpt>
      <trkpt lat="49.04364" lon="2.0105">
        <ele>153</ele>
        <time>2012-08-10T15:12:19.000Z</time>
      </trkpt>
      <trkpt lat="49.04368" lon="2.01043">
        <ele>153</ele>
        <time>2012-08-10T15:12:20.000Z</time>
      </trkpt>
      <trkpt lat="49.0437" lon="2.01036">
        <ele>153</ele>
        <time>2012-08-10T15:12:21.000Z</time>
      </trkpt>
      <trkpt lat="49.04374" lon="2.01029">
        <ele>153</ele>
        <time>2012-08-10T15:12:22.000Z</time>
      </trkpt>
      <trkpt lat="49.04376" lon="2.01022">
        <ele>153</ele>
        <time>2012-08-10T15:12:23.000Z</time>
      </trkpt>
      <trkpt lat="49.04378" lon="2.01015">
        <ele>154</ele>
        <time>2012-08-10T15:12:24.000Z</time>
      </trkpt>
      <trkpt lat="49.04382" lon="2.01007">
        <ele>154</ele>
        <time>2012-08-10T15:12:25.000Z</time>
      </trkpt>
      <trkpt lat="49.04384" lon="2.01002">
        <ele>154</ele>
        <time>2012-08-10T15:12:26.000Z</time>
      </trkpt>
      <trkpt lat="49.04387" lon="2.00994">
        <ele>154</ele>
        <time>2012-08-10T15:12:27.000Z</time>
      </trkpt>
      <trkpt lat="49.0439" lon="2.00987">
        <ele>154</ele>
        <time>2012-08-10T15:12:28.000Z</time>
      </trkpt>
      <trkpt lat="49.04392" lon="2.00981">
        <ele>154</ele>
        <time>2012-08-10T15:12:29.000Z</time>
      </trkpt>
      <trkpt lat="49.04395" lon="2.00974">
        <ele>154</ele>
        <time>2012-08-10T15:12:30.000Z</time>
      </trkpt>
      <trkpt lat="49.04397" lon="2.00966">
        <ele>154</ele>
        <time>2012-08-10T15:12:31.000Z</time>
      </trkpt>
      <trkpt lat="49.044" lon="2.00959">
        <ele>154</ele>
        <time>2012-08-10T15:12:32.000Z</time>
      </trkpt>
      <trkpt lat="49.04401" lon="2.00952">
        <ele>154</ele>
        <time>2012-08-10T15:12:33.000Z</time>
      </trkpt>
      <trkpt lat="49.04404" lon="2.00945">
        <ele>154</ele>
        <time>2012-08-10T15:12:34.000Z</time>
      </trkpt>
      <trkpt lat="49.04406" lon="2.00938">
        <ele>154</ele>
        <time>2012-08-10T15:12:35.000Z</time>
      </trkpt>
      <trkpt lat="49.04408" lon="2.00931">
        <ele>154</ele>
        <time>2012-08-10T15:12:36.000Z</time>
      </trkpt>
      <trkpt lat="49.0441" lon="2.00923">
        <ele>154</ele>
        <time>2012-08-10T15:12:37.000Z</time>
      </trkpt>
      <trkpt lat="49.04412" lon="2.00915">
        <ele>154</ele>
        <time>2012-08-10T15:12:38.000Z</time>
      </trkpt>
      <trkpt lat="49.04414" lon="2.00907">
        <ele>154</ele>
        <time>2012-08-10T15:12:39.000Z</time>
      </trkpt>
      <trkpt lat="49.04415" lon="2.00899">
        <ele>154</ele>
        <time>2012-08-10T15:12:40.000Z</time>
      </trkpt>
      <trkpt lat="49.04417" lon="2.0089">
        <ele>154</ele>
        <time>2012-08-10T15:12:41.000Z</time>
      </trkpt>
      <trkpt lat="49.04419" lon="2.00883">
        <ele>154</ele>
        <time>2012-08-10T15:12:42.000Z</time>
      </trkpt>
      <trkpt lat="49.0442" lon="2.00875">
        <ele>154</ele>
        <time>2012-08-10T15:12:43.000Z</time>
      </trkpt>
      <trkpt lat="49.04422" lon="2.00867">
        <ele>154</ele>
        <time>2012-08-10T15:12:44.000Z</time>
      </trkpt>
      <trkpt lat="49.04424" lon="2.00859">
        <ele>154</ele>
        <time>2012-08-10T15:12:45.000Z</time>
      </trkpt>
      <trkpt lat="49.04426" lon="2.00851">
        <ele>154</ele>
        <time>2012-08-10T15:12:46.000Z</time>
      </trkpt>
      <trkpt lat="49.04428" lon="2.00844">
        <ele>154</ele>
        <time>2012-08-10T15:12:47.000Z</time>
      </trkpt>
      <trkpt lat="49.04429" lon="2.00836">
        <ele>154</ele>
        <time>2012-08-10T15:12:48.000Z</time>
      </trkpt>
      <trkpt lat="49.04431" lon="2.00827">
        <ele>154</ele>
        <time>2012-08-10T15:12:49.000Z</time>
      </trkpt>
      <trkpt lat="49.04432" lon="2.00819">
        <ele>155</ele>
        <time>2012-08-10T15:12:50.000Z</time>
      </trkpt>
      <trkpt lat="49.04432" lon="2.00811">
        <ele>155</ele>
        <time>2012-08-10T15:12:51.000Z</time>
      </trkpt>
      <trkpt lat="49.04435" lon="2.00797">
        <ele>159</ele>
        <time>2012-08-10T15:12:53.000Z</time>
      </trkpt>
      <trkpt lat="49.04438" lon="2.00784">
        <ele>160</ele>
        <time>2012-08-10T15:12:55.000Z</time>
      </trkpt>
      <trkpt lat="49.0444" lon="2.00776">
        <ele>160</ele>
        <time>2012-08-10T15:12:56.000Z</time>
      </trkpt>
      <trkpt lat="49.04442" lon="2.00769">
        <ele>160</ele>
        <time>2012-08-10T15:12:57.000Z</time>
      </trkpt>
      <trkpt lat="49.04443" lon="2.00761">
        <ele>160</ele>
        <time>2012-08-10T15:12:58.000Z</time>
      </trkpt>
      <trkpt lat="49.04445" lon="2.00753">
        <ele>160</ele>
        <time>2012-08-10T15:12:59.000Z</time>
      </trkpt>
      <trkpt lat="49.04446" lon="2.00744">
        <ele>160</ele>
        <time>2012-08-10T15:13:00.000Z</time>
      </trkpt>
      <trkpt lat="49.04448" lon="2.00736">
        <ele>160</ele>
        <time>2012-08-10T15:13:01.000Z</time>
      </trkpt>
      <trkpt lat="49.0445" lon="2.00728">
        <ele>160</ele>
        <time>2012-08-10T15:13:02.000Z</time>
      </trkpt>
      <trkpt lat="49.04451" lon="2.00722">
        <ele>160</ele>
        <time>2012-08-10T15:13:03.000Z</time>
      </trkpt>
      <trkpt lat="49.04452" lon="2.00713">
        <ele>160</ele>
        <time>2012-08-10T15:13:04.000Z</time>
      </trkpt>
      <trkpt lat="49.04453" lon="2.00705">
        <ele>161</ele>
        <time>2012-08-10T15:13:05.000Z</time>
      </trkpt>
      <trkpt lat="49.04454" lon="2.00698">
        <ele>162</ele>
        <time>2012-08-10T15:13:06.000Z</time>
      </trkpt>
      <trkpt lat="49.04456" lon="2.00691">
        <ele>162</ele>
        <time>2012-08-10T15:13:07.000Z</time>
      </trkpt>
      <trkpt lat="49.04457" lon="2.00684">
        <ele>162</ele>
        <time>2012-08-10T15:13:08.000Z</time>
      </trkpt>
      <trkpt lat="49.0446" lon="2.00677">
        <ele>162</ele>
        <time>2012-08-10T15:13:09.000Z</time>
      </trkpt>
      <trkpt lat="49.04465" lon="2.00667">
        <ele>162</ele>
        <time>2012-08-10T15:13:11.000Z</time>
      </trkpt>
      <trkpt lat="49.04474" lon="2.00663">
        <ele>161</ele>
        <time>2012-08-10T15:13:13.000Z</time>
      </trkpt>
      <trkpt lat="49.04479" lon="2.00662">
        <ele>161</ele>
        <time>2012-08-10T15:13:14.000Z</time>
      </trkpt>
      <trkpt lat="49.04485" lon="2.00661">
        <ele>161</ele>
        <time>2012-08-10T15:13:15.000Z</time>
      </trkpt>
      <trkpt lat="49.0449" lon="2.00659">
        <ele>160</ele>
        <time>2012-08-10T15:13:16.000Z</time>
      </trkpt>
      <trkpt lat="49.04495" lon="2.00656">
        <ele>160</ele>
        <time>2012-08-10T15:13:17.000Z</time>
      </trkpt>
      <trkpt lat="49.045" lon="2.00651">
        <ele>160</ele>
        <time>2012-08-10T15:13:18.000Z</time>
      </trkpt>
      <trkpt lat="49.04504" lon="2.00646">
        <ele>159</ele>
        <time>2012-08-10T15:13:19.000Z</time>
      </trkpt>
      <trkpt lat="49.04508" lon="2.0064">
        <ele>159</ele>
        <time>2012-08-10T15:13:20.000Z</time>
      </trkpt>
      <trkpt lat="49.0451" lon="2.00631">
        <ele>159</ele>
        <time>2012-08-10T15:13:21.000Z</time>
      </trkpt>
      <trkpt lat="49.04511" lon="2.00623">
        <ele>160</ele>
        <time>2012-08-10T15:13:22.000Z</time>
      </trkpt>
      <trkpt lat="49.04512" lon="2.00614">
        <ele>160</ele>
        <time>2012-08-10T15:13:23.000Z</time>
      </trkpt>
      <trkpt lat="49.04511" lon="2.00605">
        <ele>160</ele>
        <time>2012-08-10T15:13:24.000Z</time>
      </trkpt>
      <trkpt lat="49.04511" lon="2.00597">
        <ele>159</ele>
        <time>2012-08-10T15:13:25.000Z</time>
      </trkpt>
      <trkpt lat="49.04511" lon="2.00588">
        <ele>159</ele>
        <time>2012-08-10T15:13:26.000Z</time>
      </trkpt>
      <trkpt lat="49.04515" lon="2.0058">
        <ele>159</ele>
        <time>2012-08-10T15:13:27.000Z</time>
      </trkpt>
      <trkpt lat="49.04518" lon="2.00574">
        <ele>160</ele>
        <time>2012-08-10T15:13:28.000Z</time>
      </trkpt>
      <trkpt lat="49.04522" lon="2.00569">
        <ele>160</ele>
        <time>2012-08-10T15:13:29.000Z</time>
      </trkpt>
      <trkpt lat="49.04528" lon="2.00559">
        <ele>159</ele>
        <time>2012-08-10T15:13:31.000Z</time>
      </trkpt>
      <trkpt lat="49.0453" lon="2.00552">
        <ele>158</ele>
        <time>2012-08-10T15:13:32.000Z</time>
      </trkpt>
      <trkpt lat="49.04532" lon="2.00546">
        <ele>158</ele>
        <time>2012-08-10T15:13:33.000Z</time>
      </trkpt>
      <trkpt lat="49.04534" lon="2.00537">
        <ele>158</ele>
        <time>2012-08-10T15:13:34.000Z</time>
      </trkpt>
      <trkpt lat="49.04535" lon="2.00529">
        <ele>158</ele>
        <time>2012-08-10T15:13:35.000Z</time>
      </trkpt>
      <trkpt lat="49.04537" lon="2.00522">
        <ele>158</ele>
        <time>2012-08-10T15:13:36.000Z</time>
      </trkpt>
      <trkpt lat="49.04538" lon="2.00516">
        <ele>159</ele>
        <time>2012-08-10T15:13:37.000Z</time>
      </trkpt>
      <trkpt lat="49.04541" lon="2.00508">
        <ele>159</ele>
        <time>2012-08-10T15:13:38.000Z</time>
      </trkpt>
      <trkpt lat="49.04542" lon="2.005">
        <ele>158</ele>
        <time>2012-08-10T15:13:39.000Z</time>
      </trkpt>
      <trkpt lat="49.04544" lon="2.00492">
        <ele>158</ele>
        <time>2012-08-10T15:13:40.000Z</time>
      </trkpt>
      <trkpt lat="49.04545" lon="2.00485">
        <ele>158</ele>
        <time>2012-08-10T15:13:41.000Z</time>
      </trkpt>
      <trkpt lat="49.04545" lon="2.00476">
        <ele>158</ele>
        <time>2012-08-10T15:13:42.000Z</time>
      </trkpt>
      <trkpt lat="49.04546" lon="2.00469">
        <ele>157</ele>
        <time>2012-08-10T15:13:43.000Z</time>
      </trkpt>
      <trkpt lat="49.04547" lon="2.00462">
        <ele>157</ele>
        <time>2012-08-10T15:13:44.000Z</time>
      </trkpt>
      <trkpt lat="49.04549" lon="2.00455">
        <ele>157</ele>
        <time>2012-08-10T15:13:45.000Z</time>
      </trkpt>
      <trkpt lat="49.04551" lon="2.00448">
        <ele>157</ele>
        <time>2012-08-10T15:13:46.000Z</time>
      </trkpt>
      <trkpt lat="49.04552" lon="2.0044">
        <ele>156</ele>
        <time>2012-08-10T15:13:47.000Z</time>
      </trkpt>
      <trkpt lat="49.04553" lon="2.00433">
        <ele>157</ele>
        <time>2012-08-10T15:13:48.000Z</time>
      </trkpt>
      <trkpt lat="49.04555" lon="2.00426">
        <ele>157</ele>
        <time>2012-08-10T15:13:49.000Z</time>
      </trkpt>
      <trkpt lat="49.04558" lon="2.00419">
        <ele>157</ele>
        <time>2012-08-10T15:13:50.000Z</time>
      </trkpt>
      <trkpt lat="49.04561" lon="2.00412">
        <ele>156</ele>
        <time>2012-08-10T15:13:51.000Z</time>
      </trkpt>
      <trkpt lat="49.04565" lon="2.00409">
        <ele>156</ele>
        <time>2012-08-10T15:13:52.000Z</time>
      </trkpt>
      <trkpt lat="49.04569" lon="2.00404">
        <ele>156</ele>
        <time>2012-08-10T15:13:53.000Z</time>
      </trkpt>
      <trkpt lat="49.04574" lon="2.004">
        <ele>156</ele>
        <time>2012-08-10T15:13:54.000Z</time>
      </trkpt>
      <trkpt lat="49.04577" lon="2.00396">
        <ele>156</ele>
        <time>2012-08-10T15:13:55.000Z</time>
      </trkpt>
      <trkpt lat="49.04582" lon="2.00392">
        <ele>156</ele>
        <time>2012-08-10T15:13:56.000Z</time>
      </trkpt>
      <trkpt lat="49.04585" lon="2.00388">
        <ele>156</ele>
        <time>2012-08-10T15:13:57.000Z</time>
      </trkpt>
      <trkpt lat="49.0459" lon="2.00384">
        <ele>156</ele>
        <time>2012-08-10T15:13:58.000Z</time>
      </trkpt>
      <trkpt lat="49.04594" lon="2.00379">
        <ele>155</ele>
        <time>2012-08-10T15:13:59.000Z</time>
      </trkpt>
      <trkpt lat="49.04597" lon="2.00375">
        <ele>155</ele>
        <time>2012-08-10T15:14:00.000Z</time>
      </trkpt>
      <trkpt lat="49.04602" lon="2.00371">
        <ele>155</ele>
        <time>2012-08-10T15:14:01.000Z</time>
      </trkpt>
      <trkpt lat="49.04605" lon="2.00365">
        <ele>155</ele>
        <time>2012-08-10T15:14:02.000Z</time>
      </trkpt>
      <trkpt lat="49.04608" lon="2.00359">
        <ele>155</ele>
        <time>2012-08-10T15:14:03.000Z</time>
      </trkpt>
      <trkpt lat="49.04611" lon="2.00352">
        <ele>155</ele>
        <time>2012-08-10T15:14:04.000Z</time>
      </trkpt>
      <trkpt lat="49.04613" lon="2.00345">
        <ele>155</ele>
        <time>2012-08-10T15:14:05.000Z</time>
      </trkpt>
      <trkpt lat="49.04615" lon="2.00333">
        <ele>156</ele>
        <time>2012-08-10T15:14:07.000Z</time>
      </trkpt>
      <trkpt lat="49.04618" lon="2.00321">
        <ele>155</ele>
        <time>2012-08-10T15:14:09.000Z</time>
      </trkpt>
      <trkpt lat="49.0462" lon="2.00307">
        <ele>155</ele>
        <time>2012-08-10T15:14:11.000Z</time>
      </trkpt>
      <trkpt lat="49.04621" lon="2.003">
        <ele>155</ele>
        <time>2012-08-10T15:14:12.000Z</time>
      </trkpt>
      <trkpt lat="49.04621" lon="2.00292">
        <ele>155</ele>
        <time>2012-08-10T15:14:13.000Z</time>
      </trkpt>
      <trkpt lat="49.04622" lon="2.00284">
        <ele>156</ele>
        <time>2012-08-10T15:14:14.000Z</time>
      </trkpt>
      <trkpt lat="49.04625" lon="2.00271">
        <ele>156</ele>
        <time>2012-08-10T15:14:16.000Z</time>
      </trkpt>
      <trkpt lat="49.04626" lon="2.00264">
        <ele>156</ele>
        <time>2012-08-10T15:14:17.000Z</time>
      </trkpt>
      <trkpt lat="49.04627" lon="2.00257">
        <ele>156</ele>
        <time>2012-08-10T15:14:18.000Z</time>
      </trkpt>
      <trkpt lat="49.04629" lon="2.0025">
        <ele>156</ele>
        <time>2012-08-10T15:14:19.000Z</time>
      </trkpt>
      <trkpt lat="49.04629" lon="2.00243">
        <ele>157</ele>
        <time>2012-08-10T15:14:20.000Z</time>
      </trkpt>
      <trkpt lat="49.0463" lon="2.00235">
        <ele>157</ele>
        <time>2012-08-10T15:14:21.000Z</time>
      </trkpt>
      <trkpt lat="49.0463" lon="2.00228">
        <ele>157</ele>
        <time>2012-08-10T15:14:22.000Z</time>
      </trkpt>
      <trkpt lat="49.04631" lon="2.0022">
        <ele>158</ele>
        <time>2012-08-10T15:14:23.000Z</time>
      </trkpt>
      <trkpt lat="49.04631" lon="2.00213">
        <ele>158</ele>
        <time>2012-08-10T15:14:24.000Z</time>
      </trkpt>
      <trkpt lat="49.04631" lon="2.00206">
        <ele>158</ele>
        <time>2012-08-10T15:14:25.000Z</time>
      </trkpt>
      <trkpt lat="49.04631" lon="2.00198">
        <ele>158</ele>
        <time>2012-08-10T15:14:26.000Z</time>
      </trkpt>
      <trkpt lat="49.04631" lon="2.00191">
        <ele>158</ele>
        <time>2012-08-10T15:14:27.000Z</time>
      </trkpt>
      <trkpt lat="49.0463" lon="2.00183">
        <ele>158</ele>
        <time>2012-08-10T15:14:28.000Z</time>
      </trkpt>
      <trkpt lat="49.04633" lon="2.00175">
        <ele>158</ele>
        <time>2012-08-10T15:14:29.000Z</time>
      </trkpt>
      <trkpt lat="49.04635" lon="2.00168">
        <ele>157</ele>
        <time>2012-08-10T15:14:30.000Z</time>
      </trkpt>
      <trkpt lat="49.04636" lon="2.00161">
        <ele>157</ele>
        <time>2012-08-10T15:14:31.000Z</time>
      </trkpt>
      <trkpt lat="49.04639" lon="2.00154">
        <ele>158</ele>
        <time>2012-08-10T15:14:32.000Z</time>
      </trkpt>
      <trkpt lat="49.04642" lon="2.00148">
        <ele>158</ele>
        <time>2012-08-10T15:14:33.000Z</time>
      </trkpt>
      <trkpt lat="49.04646" lon="2.00144">
        <ele>159</ele>
        <time>2012-08-10T15:14:34.000Z</time>
      </trkpt>
      <trkpt lat="49.04649" lon="2.00139">
        <ele>159</ele>
        <time>2012-08-10T15:14:35.000Z</time>
      </trkpt>
      <trkpt lat="49.04655" lon="2.00131">
        <ele>158</ele>
        <time>2012-08-10T15:14:37.000Z</time>
      </trkpt>
      <trkpt lat="49.04657" lon="2.00125">
        <ele>157</ele>
        <time>2012-08-10T15:14:39.000Z</time>
      </trkpt>
      <trkpt lat="49.04653" lon="2.0012">
        <ele>158</ele>
        <time>2012-08-10T15:14:41.000Z</time>
      </trkpt>
      <trkpt lat="49.04648" lon="2.00117">
        <ele>159</ele>
        <time>2012-08-10T15:14:50.000Z</time>
      </trkpt>
    </trkseg>
  </trk>
</gpx>